2016 Cux-Wetter.de -Die Nutzung der Wetterdaten nur mit ausdrcklicher Genehmigung
Wetterdaten: Mittwoch, 13.05.2020
Datum Zeit Temp. A. Feuchte A. Luftdruck Regen Wind Richtung Richtung Sonnenschein Solar Taupunkt Windchill Windben
13.05.2020 00:00 7,3 C 84 % 1011,1 hPa 0,0 l/m 5,3 km/h (1 Bft) W-NW 294 0 min 0 W/m 4,8 C 7,3 C 11,3 km/h (2 Bft)
13.05.2020 00:03 7,3 C 84 % 1011,1 hPa 0,0 l/m 5,9 km/h (2 Bft) W-NW 294 0 min 0 W/m 4,8 C 7,3 C 11,3 km/h (2 Bft)
13.05.2020 00:06 7,3 C 84 % 1011,1 hPa 0,0 l/m 2,2 km/h (1 Bft) W-NW 294 0 min 0 W/m 4,8 C 7,3 C 4,8 km/h (1 Bft)
13.05.2020 00:09 7,3 C 84 % 1011,1 hPa 0,0 l/m 5,4 km/h (2 Bft) W-NW 293 0 min 0 W/m 4,8 C 7,3 C 8,0 km/h (2 Bft)
13.05.2020 00:12 7,2 C 84 % 1011,1 hPa 0,0 l/m 5,5 km/h (2 Bft) W-NW 293 0 min 0 W/m 4,7 C 7,2 C 11,3 km/h (2 Bft)
13.05.2020 00:15 7,2 C 84 % 1011,1 hPa 0,0 l/m 4,1 km/h (1 Bft) W-NW 293 0 min 0 W/m 4,7 C 7,2 C 8,0 km/h (2 Bft)
13.05.2020 00:18 7,2 C 84 % 1011,1 hPa 0,0 l/m 4,4 km/h (1 Bft) W-NW 293 0 min 0 W/m 4,7 C 7,2 C 8,0 km/h (2 Bft)
13.05.2020 00:21 7,2 C 84 % 1011,1 hPa 0,0 l/m 3,6 km/h (1 Bft) W-NW 293 0 min 0 W/m 4,7 C 7,2 C 6,4 km/h (2 Bft)
13.05.2020 00:24 7,2 C 84 % 1011,1 hPa 0,0 l/m 6,2 km/h (2 Bft) W-NW 292 0 min 0 W/m 4,7 C 7,2 C 14,5 km/h (3 Bft)
13.05.2020 00:27 7,2 C 84 % 1011,1 hPa 0,0 l/m 12,3 km/h (2 Bft) W-NW 286 0 min 0 W/m 4,7 C 3,1 C 19,3 km/h (3 Bft)
13.05.2020 00:30 7,2 C 84 % 1011,1 hPa 0,0 l/m 9,8 km/h (2 Bft) W 274 0 min 0 W/m 4,7 C 4,6 C 19,3 km/h (3 Bft)
13.05.2020 00:33 7,1 C 84 % 1011,1 hPa 0,0 l/m 6,4 km/h (2 Bft) W-NW 300 0 min 0 W/m 4,6 C 7,1 C 16,1 km/h (3 Bft)
13.05.2020 00:36 7,1 C 84 % 1011,0 hPa 0,0 l/m 7,0 km/h (2 Bft) W-NW 296 0 min 0 W/m 4,6 C 6,6 C 12,9 km/h (3 Bft)
13.05.2020 00:39 7,1 C 84 % 1011,0 hPa 0,0 l/m 5,0 km/h (1 Bft) W-NW 296 0 min 0 W/m 4,6 C 7,1 C 8,0 km/h (2 Bft)
13.05.2020 00:42 7,1 C 85 % 1011,0 hPa 0,0 l/m 4,0 km/h (1 Bft) W-NW 296 0 min 0 W/m 4,8 C 7,1 C 8,0 km/h (2 Bft)
13.05.2020 00:45 7,0 C 85 % 1011,0 hPa 0,0 l/m 4,9 km/h (1 Bft) W-NW 295 0 min 0 W/m 4,7 C 7,0 C 11,3 km/h (2 Bft)
13.05.2020 00:48 7,0 C 85 % 1011,0 hPa 0,0 l/m 5,7 km/h (2 Bft) W-NW 295 0 min 0 W/m 4,7 C 7,0 C 12,9 km/h (3 Bft)
13.05.2020 00:51 7,0 C 85 % 1011,1 hPa 0,0 l/m 6,4 km/h (2 Bft) W-SW 257 0 min 0 W/m 4,7 C 7,0 C 14,5 km/h (3 Bft)
13.05.2020 00:54 7,0 C 85 % 1011,1 hPa 0,2 l/m 11,3 km/h (2 Bft) NW 317 0 min 0 W/m 4,7 C 3,5 C 19,3 km/h (3 Bft)
13.05.2020 00:57 6,9 C 85 % 1011,0 hPa 0,0 l/m 8,5 km/h (2 Bft) W 271 0 min 0 W/m 4,6 C 5,2 C 14,5 km/h (3 Bft)
13.05.2020 01:00 6,9 C 85 % 1010,9 hPa 0,0 l/m 8,6 km/h (2 Bft) W 273 0 min 0 W/m 4,6 C 5,1 C 14,5 km/h (3 Bft)
13.05.2020 01:03 6,8 C 85 % 1010,8 hPa 0,0 l/m 6,1 km/h (2 Bft) W 273 0 min 0 W/m 4,5 C 6,8 C 11,3 km/h (2 Bft)
13.05.2020 01:06 6,8 C 85 % 1010,8 hPa 0,0 l/m 3,3 km/h (1 Bft) W 273 0 min 0 W/m 4,5 C 6,8 C 6,4 km/h (2 Bft)
13.05.2020 01:09 6,7 C 85 % 1010,9 hPa 0,0 l/m 3,9 km/h (1 Bft) W 272 0 min 0 W/m 4,4 C 6,7 C 9,7 km/h (2 Bft)
13.05.2020 01:12 6,7 C 85 % 1010,9 hPa 0,0 l/m 5,7 km/h (2 Bft) W 272 0 min 0 W/m 4,4 C 6,7 C 11,3 km/h (2 Bft)
13.05.2020 01:15 6,7 C 85 % 1010,8 hPa 0,0 l/m 4,9 km/h (1 Bft) W 273 0 min 0 W/m 4,4 C 6,7 C 12,9 km/h (3 Bft)
13.05.2020 01:18 6,6 C 85 % 1010,8 hPa 0,0 l/m 5,0 km/h (1 Bft) W 273 0 min 0 W/m 4,3 C 6,6 C 11,3 km/h (2 Bft)
13.05.2020 01:21 6,6 C 85 % 1010,8 hPa 0,0 l/m 4,6 km/h (1 Bft) W 273 0 min 0 W/m 4,3 C 6,6 C 11,3 km/h (2 Bft)
13.05.2020 01:24 6,6 C 85 % 1010,8 hPa 0,0 l/m 5,6 km/h (2 Bft) W 273 0 min 0 W/m 4,3 C 6,6 C 12,9 km/h (3 Bft)
13.05.2020 01:27 6,5 C 85 % 1010,7 hPa 0,0 l/m 5,1 km/h (1 Bft) W 273 0 min 0 W/m 4,2 C 6,5 C 14,5 km/h (3 Bft)
13.05.2020 01:30 6,4 C 85 % 1010,7 hPa 0,0 l/m 4,1 km/h (1 Bft) W 273 0 min 0 W/m 4,1 C 6,4 C 6,4 km/h (2 Bft)
13.05.2020 01:33 6,4 C 85 % 1010,7 hPa 0,0 l/m 6,1 km/h (2 Bft) W 273 0 min 0 W/m 4,1 C 6,4 C 11,3 km/h (2 Bft)
13.05.2020 01:36 6,4 C 85 % 1010,7 hPa 0,0 l/m 5,2 km/h (1 Bft) W 273 0 min 0 W/m 4,1 C 6,4 C 11,3 km/h (2 Bft)
13.05.2020 01:39 6,4 C 86 % 1010,6 hPa 0,0 l/m 4,4 km/h (1 Bft) W 273 0 min 0 W/m 4,2 C 6,4 C 9,7 km/h (2 Bft)
13.05.2020 01:42 6,4 C 86 % 1010,6 hPa 0,0 l/m 4,9 km/h (1 Bft) W 273 0 min 0 W/m 4,2 C 6,4 C 11,3 km/h (2 Bft)
13.05.2020 01:45 6,4 C 86 % 1010,6 hPa 0,0 l/m 6,1 km/h (2 Bft) W 265 0 min 0 W/m 4,2 C 6,4 C 12,9 km/h (3 Bft)
13.05.2020 01:48 6,4 C 86 % 1010,6 hPa 0,0 l/m 6,4 km/h (2 Bft) W 277 0 min 0 W/m 4,2 C 6,4 C 14,5 km/h (3 Bft)
13.05.2020 01:51 6,4 C 87 % 1010,6 hPa 0,0 l/m 7,0 km/h (2 Bft) W 274 0 min 0 W/m 4,4 C 5,9 C 14,5 km/h (3 Bft)
13.05.2020 01:54 6,5 C 87 % 1010,7 hPa 0,0 l/m 11,5 km/h (2 Bft) W 277 0 min 0 W/m 4,5 C 2,8 C 22,5 km/h (4 Bft)
13.05.2020 01:57 6,6 C 87 % 1010,7 hPa 0,0 l/m 9,7 km/h (2 Bft) W-NW 288 0 min 0 W/m 4,6 C 4,0 C 20,9 km/h (4 Bft)
13.05.2020 02:00 6,6 C 87 % 1010,7 hPa 0,0 l/m 11,9 km/h (2 Bft) W 274 0 min 0 W/m 4,6 C 2,7 C 19,3 km/h (3 Bft)
13.05.2020 02:03 6,6 C 87 % 1010,6 hPa 0,0 l/m 7,9 km/h (2 Bft) W 278 0 min 0 W/m 4,6 C 5,4 C 14,5 km/h (3 Bft)
13.05.2020 02:06 6,6 C 87 % 1010,5 hPa 0,0 l/m 6,2 km/h (2 Bft) W 281 0 min 0 W/m 4,6 C 6,6 C 12,9 km/h (3 Bft)
13.05.2020 02:09 6,6 C 87 % 1010,5 hPa 0,2 l/m 5,2 km/h (1 Bft) W 281 0 min 0 W/m 4,6 C 6,6 C 12,9 km/h (3 Bft)
13.05.2020 02:12 6,6 C 87 % 1010,5 hPa 0,0 l/m 5,5 km/h (2 Bft) W 281 0 min 0 W/m 4,6 C 6,6 C 11,3 km/h (2 Bft)
13.05.2020 02:15 6,6 C 87 % 1010,5 hPa 0,0 l/m 3,1 km/h (1 Bft) W 281 0 min 0 W/m 4,6 C 6,6 C 6,4 km/h (2 Bft)
13.05.2020 02:18 6,6 C 87 % 1010,5 hPa 0,0 l/m 3,3 km/h (1 Bft) W 281 0 min 0 W/m 4,6 C 6,6 C 6,4 km/h (2 Bft)
13.05.2020 02:21 6,6 C 87 % 1010,5 hPa 0,0 l/m 5,9 km/h (2 Bft) W 281 0 min 0 W/m 4,6 C 6,6 C 14,5 km/h (3 Bft)
13.05.2020 02:24 6,5 C 87 % 1010,5 hPa 0,0 l/m 7,3 km/h (2 Bft) W 281 0 min 0 W/m 4,5 C 5,7 C 14,5 km/h (3 Bft)
13.05.2020 02:27 6,5 C 87 % 1010,5 hPa 0,0 l/m 6,2 km/h (2 Bft) W 281 0 min 0 W/m 4,5 C 6,5 C 12,9 km/h (3 Bft)
13.05.2020 02:30 6,6 C 87 % 1010,5 hPa 0,0 l/m 7,1 km/h (2 Bft) W-SW 257 0 min 0 W/m 4,6 C 6,0 C 14,5 km/h (3 Bft)
13.05.2020 02:33 6,6 C 87 % 1010,5 hPa 0,0 l/m 5,3 km/h (1 Bft) W 271 0 min 0 W/m 4,6 C 6,6 C 12,9 km/h (3 Bft)
13.05.2020 02:36 6,6 C 87 % 1010,5 hPa 0,0 l/m 5,4 km/h (2 Bft) W 274 0 min 0 W/m 4,6 C 6,6 C 11,3 km/h (2 Bft)
13.05.2020 02:39 6,6 C 87 % 1010,5 hPa 0,0 l/m 8,8 km/h (2 Bft) W 270 0 min 0 W/m 4,6 C 4,7 C 16,1 km/h (3 Bft)
13.05.2020 02:42 6,6 C 87 % 1010,4 hPa 0,0 l/m 8,3 km/h (2 Bft) SW 225 0 min 0 W/m 4,6 C 5,1 C 16,1 km/h (3 Bft)
13.05.2020 02:45 6,6 C 87 % 1010,4 hPa 0,0 l/m 5,5 km/h (2 Bft) W 265 0 min 0 W/m 4,6 C 6,6 C 12,9 km/h (3 Bft)
13.05.2020 02:48 6,6 C 87 % 1010,4 hPa 0,0 l/m 8,0 km/h (2 Bft) W-SW 250 0 min 0 W/m 4,6 C 5,3 C 17,7 km/h (3 Bft)
13.05.2020 02:51 6,6 C 87 % 1010,4 hPa 0,0 l/m 5,6 km/h (2 Bft) W 273 0 min 0 W/m 4,6 C 6,6 C 12,9 km/h (3 Bft)
13.05.2020 02:54 6,6 C 87 % 1010,4 hPa 0,0 l/m 6,5 km/h (2 Bft) W 275 0 min 0 W/m 4,6 C 6,5 C 16,1 km/h (3 Bft)
13.05.2020 02:57 6,7 C 87 % 1010,4 hPa 0,0 l/m 7,5 km/h (2 Bft) W 274 0 min 0 W/m 4,7 C 5,8 C 17,7 km/h (3 Bft)
13.05.2020 03:00 6,7 C 87 % 1010,4 hPa 0,0 l/m 10,0 km/h (2 Bft) SW 218 0 min 0 W/m 4,7 C 4,0 C 16,1 km/h (3 Bft)
13.05.2020 03:03 6,7 C 87 % 1010,4 hPa 0,0 l/m 8,9 km/h (2 Bft) W 267 0 min 0 W/m 4,7 C 4,7 C 19,3 km/h (3 Bft)
13.05.2020 03:06 6,8 C 87 % 1010,4 hPa 0,0 l/m 7,0 km/h (2 Bft) W-SW 256 0 min 0 W/m 4,8 C 6,3 C 14,5 km/h (3 Bft)
13.05.2020 03:09 6,8 C 87 % 1010,3 hPa 0,0 l/m 10,5 km/h (2 Bft) SW 229 0 min 0 W/m 4,8 C 3,7 C 16,1 km/h (3 Bft)
13.05.2020 03:12 6,9 C 87 % 1010,3 hPa 0,0 l/m 9,6 km/h (2 Bft) W-SW 244 0 min 0 W/m 4,9 C 4,4 C 17,7 km/h (3 Bft)
13.05.2020 03:15 6,9 C 87 % 1010,2 hPa 0,0 l/m 7,1 km/h (2 Bft) W-SW 244 0 min 0 W/m 4,9 C 6,3 C 12,9 km/h (3 Bft)
13.05.2020 03:18 6,9 C 87 % 1010,2 hPa 0,0 l/m 5,5 km/h (2 Bft) W-SW 244 0 min 0 W/m 4,9 C 6,9 C 11,3 km/h (2 Bft)
13.05.2020 03:21 6,9 C 87 % 1010,2 hPa 0,0 l/m 5,4 km/h (2 Bft) W-SW 245 0 min 0 W/m 4,9 C 6,9 C 8,0 km/h (2 Bft)
13.05.2020 03:24 6,8 C 87 % 1010,2 hPa 0,0 l/m 6,2 km/h (2 Bft) NW 319 0 min 0 W/m 4,8 C 6,8 C 14,5 km/h (3 Bft)
13.05.2020 03:27 6,8 C 87 % 1010,1 hPa 0,0 l/m 5,9 km/h (2 Bft) W 263 0 min 0 W/m 4,8 C 6,8 C 14,5 km/h (3 Bft)
13.05.2020 03:30 6,7 C 87 % 1010,1 hPa 0,0 l/m 8,8 km/h (2 Bft) W 265 0 min 0 W/m 4,7 C 4,8 C 14,5 km/h (3 Bft)
13.05.2020 03:33 6,7 C 86 % 1010,2 hPa 0,0 l/m 10,8 km/h (2 Bft) W 277 0 min 0 W/m 4,5 C 3,4 C 19,3 km/h (3 Bft)
13.05.2020 03:36 6,7 C 86 % 1010,1 hPa 0,0 l/m 12,2 km/h (2 Bft) W-NW 288 0 min 0 W/m 4,5 C 2,6 C 17,7 km/h (3 Bft)
13.05.2020 03:39 6,6 C 86 % 1010,1 hPa 0,0 l/m 7,2 km/h (2 Bft) W 277 0 min 0 W/m 4,4 C 5,9 C 14,5 km/h (3 Bft)
13.05.2020 03:42 6,6 C 86 % 1010,1 hPa 0,0 l/m 8,3 km/h (2 Bft) W 273 0 min 0 W/m 4,4 C 5,1 C 17,7 km/h (3 Bft)
13.05.2020 03:45 6,7 C 86 % 1010,1 hPa 0,0 l/m 10,2 km/h (2 Bft) W 272 0 min 0 W/m 4,5 C 3,8 C 19,3 km/h (3 Bft)
13.05.2020 03:48 6,7 C 85 % 1010,1 hPa 0,0 l/m 8,1 km/h (2 Bft) W 260 0 min 0 W/m 4,4 C 5,3 C 17,7 km/h (3 Bft)
13.05.2020 03:51 6,8 C 85 % 1010,1 hPa 0,0 l/m 9,6 km/h (2 Bft) W 275 0 min 0 W/m 4,5 C 4,3 C 17,7 km/h (3 Bft)
13.05.2020 03:54 6,8 C 85 % 1010,1 hPa 0,0 l/m 10,7 km/h (2 Bft) W 274 0 min 0 W/m 4,5 C 3,6 C 16,1 km/h (3 Bft)
13.05.2020 03:57 6,8 C 85 % 1010,1 hPa 0,0 l/m 8,4 km/h (2 Bft) W-SW 246 0 min 0 W/m 4,5 C 5,2 C 17,7 km/h (3 Bft)
13.05.2020 04:00 6,9 C 85 % 1010,0 hPa 0,0 l/m 6,0 km/h (2 Bft) W-SW 248 0 min 0 W/m 4,6 C 6,9 C 12,9 km/h (3 Bft)
13.05.2020 04:03 7,0 C 84 % 1010,1 hPa 0,0 l/m 7,7 km/h (2 Bft) W 259 0 min 0 W/m 4,5 C 5,9 C 14,5 km/h (3 Bft)
13.05.2020 04:06 7,0 C 84 % 1010,0 hPa 0,0 l/m 8,6 km/h (2 Bft) W 262 0 min 0 W/m 4,5 C 5,3 C 12,9 km/h (3 Bft)
13.05.2020 04:09 7,1 C 84 % 1010,0 hPa 0,0 l/m 8,3 km/h (2 Bft) W-SW 242 0 min 0 W/m 4,6 C 5,6 C 14,5 km/h (3 Bft)
13.05.2020 04:12 7,1 C 84 % 1010,0 hPa 0,0 l/m 4,9 km/h (1 Bft) W-SW 244 0 min 0 W/m 4,6 C 7,1 C 12,9 km/h (3 Bft)
13.05.2020 04:15 7,1 C 84 % 1010,0 hPa 0,0 l/m 4,4 km/h (1 Bft) W-SW 242 0 min 0 W/m 4,6 C 7,1 C 8,0 km/h (2 Bft)
13.05.2020 04:18 7,2 C 84 % 1010,0 hPa 0,0 l/m 7,3 km/h (2 Bft) W-SW 237 0 min 0 W/m 4,7 C 6,5 C 14,5 km/h (3 Bft)
13.05.2020 04:21 7,3 C 84 % 1009,9 hPa 0,0 l/m 8,8 km/h (2 Bft) SW 220 0 min 0 W/m 4,8 C 5,4 C 14,5 km/h (3 Bft)
13.05.2020 04:24 7,3 C 85 % 1010,0 hPa 0,0 l/m 8,7 km/h (2 Bft) SW 215 0 min 0 W/m 4,9 C 5,5 C 16,1 km/h (3 Bft)
13.05.2020 04:27 7,4 C 85 % 1010,0 hPa 0,0 l/m 9,8 km/h (2 Bft) SW 217 0 min 0 W/m 5,0 C 4,9 C 16,1 km/h (3 Bft)
13.05.2020 04:30 7,4 C 85 % 1010,0 hPa 0,0 l/m 7,7 km/h (2 Bft) SW 217 0 min 0 W/m 5,0 C 6,4 C 12,9 km/h (3 Bft)
13.05.2020 04:33 7,4 C 85 % 1010,0 hPa 0,0 l/m 6,0 km/h (2 Bft) SW 217 0 min 0 W/m 5,0 C 7,4 C 9,7 km/h (2 Bft)
13.05.2020 04:36 7,4 C 85 % 1010,0 hPa 0,0 l/m 7,8 km/h (2 Bft) S-SW 202 0 min 0 W/m 5,0 C 6,3 C 12,9 km/h (3 Bft)
13.05.2020 04:39 7,4 C 85 % 1010,0 hPa 0,0 l/m 8,7 km/h (2 Bft) SW 223 0 min 0 W/m 5,0 C 5,6 C 16,1 km/h (3 Bft)
13.05.2020 04:42 7,3 C 86 % 1010,0 hPa 0,0 l/m 10,3 km/h (2 Bft) SW 220 0 min 0 W/m 5,1 C 4,4 C 17,7 km/h (3 Bft)
13.05.2020 04:45 7,3 C 86 % 1010,0 hPa 0,0 l/m 10,8 km/h (2 Bft) SW 221 0 min 0 W/m 5,1 C 4,1 C 19,3 km/h (3 Bft)
13.05.2020 04:48 7,3 C 86 % 1010,0 hPa 0,0 l/m 11,4 km/h (2 Bft) W-SW 249 0 min 0 W/m 5,1 C 3,8 C 16,1 km/h (3 Bft)
13.05.2020 04:51 7,3 C 86 % 1010,0 hPa 0,0 l/m 12,8 km/h (3 Bft) SW 236 0 min 0 W/m 5,1 C 3,0 C 17,7 km/h (3 Bft)
13.05.2020 04:54 7,3 C 86 % 1010,1 hPa 0,0 l/m 11,8 km/h (2 Bft) S-SW 203 0 min 0 W/m 5,1 C 3,5 C 22,5 km/h (4 Bft)
13.05.2020 04:57 7,2 C 86 % 1010,0 hPa 0,0 l/m 12,2 km/h (2 Bft) N 11 0 min 0 W/m 5,0 C 3,2 C 22,5 km/h (4 Bft)
13.05.2020 05:00 7,2 C 86 % 1010,0 hPa 0,2 l/m 9,0 km/h (2 Bft) W-SW 240 0 min 0 W/m 5,0 C 5,2 C 17,7 km/h (3 Bft)
13.05.2020 05:03 7,1 C 86 % 1010,0 hPa 0,0 l/m 11,6 km/h (2 Bft) S-SW 201 0 min 0 W/m 4,9 C 3,4 C 17,7 km/h (3 Bft)
13.05.2020 05:06 7,1 C 86 % 1010,0 hPa 0,0 l/m 13,0 km/h (3 Bft) SW 229 0 min 0 W/m 4,9 C 2,6 C 19,3 km/h (3 Bft)
13.05.2020 05:09 7,1 C 86 % 1010,0 hPa 0,0 l/m 10,2 km/h (2 Bft) SW 217 0 min 0 W/m 4,9 C 4,3 C 17,7 km/h (3 Bft)
13.05.2020 05:12 7,1 C 87 % 1010,0 hPa 0,0 l/m 12,0 km/h (2 Bft) SW 234 0 min 0 W/m 5,1 C 3,2 C 17,7 km/h (3 Bft)
13.05.2020 05:15 7,1 C 87 % 1010,0 hPa 0,0 l/m 13,7 km/h (3 Bft) SW 219 0 min 0 W/m 5,1 C 2,3 C 30,6 km/h (5 Bft)
13.05.2020 05:18 7,1 C 87 % 1009,9 hPa 0,0 l/m 13,8 km/h (3 Bft) W-SW 240 0 min 0 W/m 5,1 C 2,2 C 25,7 km/h (4 Bft)
13.05.2020 05:21 7,1 C 87 % 1010,0 hPa 0,0 l/m 15,0 km/h (3 Bft) S-SW 198 0 min 0 W/m 5,1 C 1,6 C 24,1 km/h (4 Bft)
13.05.2020 05:24 7,1 C 87 % 1010,0 hPa 0,0 l/m 13,1 km/h (3 Bft) SW 220 0 min 0 W/m 5,1 C 2,6 C 19,3 km/h (3 Bft)
13.05.2020 05:27 7,1 C 88 % 1010,0 hPa 0,0 l/m 12,2 km/h (2 Bft) SW 229 0 min 0 W/m 5,2 C 3,1 C 20,9 km/h (4 Bft)
13.05.2020 05:30 7,1 C 88 % 1009,9 hPa 0,0 l/m 13,1 km/h (3 Bft) W 259 0 min 0 W/m 5,2 C 2,6 C 20,9 km/h (4 Bft)
13.05.2020 05:33 7,1 C 88 % 1009,9 hPa 0,0 l/m 13,2 km/h (3 Bft) SW 231 0 min 0 W/m 5,2 C 2,5 C 20,9 km/h (4 Bft)
13.05.2020 05:36 7,1 C 88 % 1009,9 hPa 0,0 l/m 12,6 km/h (3 Bft) SW 221 0 min 0 W/m 5,2 C 2,8 C 22,5 km/h (4 Bft)
13.05.2020 05:39 7,1 C 88 % 1009,9 hPa 0,0 l/m 11,3 km/h (2 Bft) W-SW 246 0 min 0 W/m 5,2 C 3,6 C 19,3 km/h (3 Bft)
13.05.2020 05:42 7,2 C 88 % 1009,9 hPa 0,0 l/m 9,8 km/h (2 Bft) S-SW 213 0 min 0 W/m 5,3 C 4,6 C 17,7 km/h (3 Bft)
13.05.2020 05:45 7,2 C 88 % 1010,0 hPa 0,0 l/m 15,2 km/h (3 Bft) W-SW 258 0 min 0 W/m 5,3 C 1,6 C 25,7 km/h (4 Bft)
13.05.2020 05:48 7,2 C 88 % 1009,9 hPa 0,0 l/m 11,7 km/h (2 Bft) W-SW 242 0 min 0 W/m 5,3 C 3,5 C 19,3 km/h (3 Bft)
13.05.2020 05:51 7,2 C 88 % 1009,9 hPa 0,0 l/m 11,0 km/h (2 Bft) W-SW 248 0 min 7 W/m 5,3 C 3,9 C 22,5 km/h (4 Bft)
13.05.2020 05:54 7,2 C 88 % 1009,9 hPa 0,0 l/m 12,8 km/h (3 Bft) W 261 0 min 16 W/m 5,3 C 2,8 C 20,9 km/h (4 Bft)
13.05.2020 05:57 7,1 C 87 % 1009,8 hPa 0,0 l/m 9,4 km/h (2 Bft) SW 229 0 min 21 W/m 5,1 C 4,8 C 16,1 km/h (3 Bft)
13.05.2020 06:00 7,1 C 87 % 1009,8 hPa 0,0 l/m 8,8 km/h (2 Bft) W-SW 238 0 min 26 W/m 5,1 C 5,2 C 19,3 km/h (3 Bft)
13.05.2020 06:03 7,0 C 87 % 1009,8 hPa 0,0 l/m 9,3 km/h (2 Bft) W-SW 237 0 min 28 W/m 5,0 C 4,8 C 17,7 km/h (3 Bft)
13.05.2020 06:06 6,9 C 87 % 1009,9 hPa 0,0 l/m 8,6 km/h (2 Bft) W-SW 241 0 min 26 W/m 4,9 C 5,1 C 14,5 km/h (3 Bft)
13.05.2020 06:09 6,9 C 87 % 1009,9 hPa 0,0 l/m 9,3 km/h (2 Bft) SW 229 0 min 19 W/m 4,9 C 4,6 C 19,3 km/h (3 Bft)
13.05.2020 06:12 7,0 C 87 % 1009,9 hPa 0,0 l/m 10,3 km/h (2 Bft) SW 232 0 min 14 W/m 5,0 C 4,1 C 19,3 km/h (3 Bft)
13.05.2020 06:15 7,0 C 87 % 1009,8 hPa 0,0 l/m 9,8 km/h (2 Bft) SW 224 0 min 14 W/m 5,0 C 4,4 C 14,5 km/h (3 Bft)
13.05.2020 06:18 7,0 C 87 % 1009,8 hPa 0,0 l/m 9,9 km/h (2 Bft) SW 226 0 min 21 W/m 5,0 C 4,3 C 17,7 km/h (3 Bft)
13.05.2020 06:21 7,1 C 88 % 1009,8 hPa 0,0 l/m 10,3 km/h (2 Bft) SW 230 0 min 23 W/m 5,2 C 4,2 C 14,5 km/h (3 Bft)
13.05.2020 06:24 7,1 C 88 % 1009,8 hPa 0,0 l/m 7,9 km/h (2 Bft) SW 221 0 min 25 W/m 5,2 C 5,9 C 16,1 km/h (3 Bft)
13.05.2020 06:27 7,2 C 88 % 1009,8 hPa 0,0 l/m 7,6 km/h (2 Bft) SW 223 0 min 25 W/m 5,3 C 6,2 C 11,3 km/h (2 Bft)
13.05.2020 06:30 7,2 C 88 % 1009,8 hPa 0,0 l/m 8,4 km/h (2 Bft) SW 225 0 min 28 W/m 5,3 C 5,6 C 12,9 km/h (3 Bft)
13.05.2020 06:33 7,2 C 88 % 1009,8 hPa 0,0 l/m 7,3 km/h (2 Bft) W-SW 245 0 min 28 W/m 5,3 C 6,5 C 14,5 km/h (3 Bft)
13.05.2020 06:36 7,3 C 88 % 1009,8 hPa 0,0 l/m 8,8 km/h (2 Bft) W-SW 246 0 min 26 W/m 5,4 C 5,4 C 17,7 km/h (3 Bft)
13.05.2020 06:39 7,3 C 89 % 1009,8 hPa 0,0 l/m 8,6 km/h (2 Bft) SW 224 0 min 33 W/m 5,6 C 5,6 C 14,5 km/h (3 Bft)
13.05.2020 06:42 7,3 C 89 % 1009,8 hPa 0,0 l/m 9,8 km/h (2 Bft) SW 236 0 min 54 W/m 5,6 C 4,7 C 17,7 km/h (3 Bft)
13.05.2020 06:45 7,4 C 89 % 1009,8 hPa 0,0 l/m 11,7 km/h (2 Bft) SW 234 0 min 69 W/m 5,7 C 3,7 C 17,7 km/h (3 Bft)
13.05.2020 06:48 7,4 C 89 % 1009,8 hPa 0,0 l/m 10,1 km/h (2 Bft) S-SW 213 0 min 86 W/m 5,7 C 4,7 C 16,1 km/h (3 Bft)
13.05.2020 06:51 7,5 C 89 % 1009,7 hPa 0,0 l/m 11,9 km/h (2 Bft) SW 223 0 min 84 W/m 5,8 C 3,7 C 20,9 km/h (4 Bft)
13.05.2020 06:54 7,5 C 89 % 1009,8 hPa 0,0 l/m 9,8 km/h (2 Bft) SW 223 0 min 100 W/m 5,8 C 5,0 C 14,5 km/h (3 Bft)
13.05.2020 06:57 7,6 C 89 % 1009,8 hPa 0,0 l/m 11,2 km/h (2 Bft) S-SW 212 0 min 86 W/m 5,9 C 4,2 C 16,1 km/h (3 Bft)
13.05.2020 07:00 7,6 C 89 % 1009,8 hPa 0,0 l/m 10,8 km/h (2 Bft) SW 221 0 min 69 W/m 5,9 C 4,4 C 17,7 km/h (3 Bft)
13.05.2020 07:03 7,7 C 89 % 1009,8 hPa 0,0 l/m 10,6 km/h (2 Bft) S-SW 208 0 min 54 W/m 6,0 C 4,7 C 17,7 km/h (3 Bft)
13.05.2020 07:06 7,7 C 89 % 1009,9 hPa 0,0 l/m 13,2 km/h (3 Bft) W-SW 237 0 min 30 W/m 6,0 C 3,2 C 22,5 km/h (4 Bft)
13.05.2020 07:09 7,7 C 89 % 1009,9 hPa 0,0 l/m 10,2 km/h (2 Bft) S-SW 204 0 min 23 W/m 6,0 C 4,9 C 17,7 km/h (3 Bft)
13.05.2020 07:12 7,7 C 89 % 1009,9 hPa 0,0 l/m 12,0 km/h (2 Bft) W-SW 248 0 min 18 W/m 6,0 C 3,9 C 20,9 km/h (4 Bft)
13.05.2020 07:15 7,7 C 89 % 1009,9 hPa 0,0 l/m 12,6 km/h (3 Bft) W-NW 282 0 min 18 W/m 6,0 C 3,5 C 20,9 km/h (4 Bft)
13.05.2020 07:18 7,7 C 89 % 1009,9 hPa 0,0 l/m 13,2 km/h (3 Bft) SW 228 0 min 35 W/m 6,0 C 3,2 C 20,9 km/h (4 Bft)
13.05.2020 07:21 7,6 C 88 % 1009,8 hPa 0,0 l/m 6,6 km/h (2 Bft) SW 229 0 min 49 W/m 5,7 C 7,5 C 11,3 km/h (2 Bft)
13.05.2020 07:24 7,7 C 88 % 1009,9 hPa 0,0 l/m 7,3 km/h (2 Bft) SW 230 0 min 65 W/m 5,8 C 7,0 C 11,3 km/h (2 Bft)
13.05.2020 07:27 7,7 C 88 % 1009,8 hPa 0,0 l/m 6,1 km/h (2 Bft) SW 231 0 min 95 W/m 5,8 C 7,7 C 12,9 km/h (3 Bft)
13.05.2020 07:30 7,7 C 88 % 1009,9 hPa 0,0 l/m 9,9 km/h (2 Bft) SW 233 0 min 111 W/m 5,8 C 5,1 C 17,7 km/h (3 Bft)
13.05.2020 07:33 7,7 C 88 % 1009,9 hPa 0,0 l/m 8,0 km/h (2 Bft) SW 229 0 min 69 W/m 5,8 C 6,4 C 16,1 km/h (3 Bft)
13.05.2020 07:36 7,7 C 88 % 1009,9 hPa 0,0 l/m 8,7 km/h (2 Bft) W 261 0 min 40 W/m 5,8 C 5,9 C 14,5 km/h (3 Bft)
13.05.2020 07:39 7,7 C 88 % 1010,0 hPa 0,0 l/m 5,6 km/h (2 Bft) W-SW 248 0 min 25 W/m 5,8 C 7,7 C 12,9 km/h (3 Bft)
13.05.2020 07:42 7,7 C 88 % 1009,9 hPa 0,0 l/m 5,6 km/h (2 Bft) W-SW 249 0 min 33 W/m 5,8 C 7,7 C 12,9 km/h (3 Bft)
13.05.2020 07:45 7,7 C 88 % 1009,9 hPa 0,0 l/m 7,6 km/h (2 Bft) SW 232 0 min 28 W/m 5,8 C 6,7 C 16,1 km/h (3 Bft)
13.05.2020 07:48 7,7 C 88 % 1009,9 hPa 0,0 l/m 9,9 km/h (2 Bft) W-SW 237 0 min 23 W/m 5,8 C 5,1 C 17,7 km/h (3 Bft)
13.05.2020 07:51 7,7 C 88 % 1009,9 hPa 0,0 l/m 7,5 km/h (2 Bft) SW 234 0 min 23 W/m 5,8 C 6,8 C 14,5 km/h (3 Bft)
13.05.2020 07:54 7,7 C 88 % 1009,9 hPa 0,0 l/m 10,8 km/h (2 Bft) SW 215 0 min 32 W/m 5,8 C 4,6 C 19,3 km/h (3 Bft)
13.05.2020 07:57 7,7 C 88 % 1009,9 hPa 0,0 l/m 9,7 km/h (2 Bft) SW 218 0 min 79 W/m 5,8 C 5,2 C 16,1 km/h (3 Bft)
13.05.2020 08:00 7,8 C 88 % 1009,8 hPa 0,0 l/m 8,6 km/h (2 Bft) SW 220 0 min 116 W/m 5,9 C 6,1 C 14,5 km/h (3 Bft)
13.05.2020 08:03 7,8 C 88 % 1009,9 hPa 0,0 l/m 9,4 km/h (2 Bft) SW 229 0 min 109 W/m 5,9 C 5,6 C 12,9 km/h (3 Bft)
13.05.2020 08:06 7,8 C 88 % 1009,8 hPa 0,0 l/m 7,8 km/h (2 Bft) SW 229 0 min 32 W/m 5,9 C 6,7 C 12,9 km/h (3 Bft)
13.05.2020 08:09 7,8 C 88 % 1009,8 hPa 0,0 l/m 6,4 km/h (2 Bft) SW 228 0 min 16 W/m 5,9 C 7,8 C 8,0 km/h (2 Bft)
13.05.2020 08:12 7,9 C 88 % 1009,9 hPa 0,0 l/m 10,6 km/h (2 Bft) SW 221 0 min 16 W/m 6,0 C 4,9 C 17,7 km/h (3 Bft)
13.05.2020 08:15 7,9 C 88 % 1009,9 hPa 0,0 l/m 11,0 km/h (2 Bft) SW 231 0 min 12 W/m 6,0 C 4,7 C 17,7 km/h (3 Bft)
13.05.2020 08:18 7,9 C 88 % 1010,0 hPa 0,2 l/m 12,4 km/h (2 Bft) W-NW 290 0 min 12 W/m 6,0 C 3,9 C 20,9 km/h (4 Bft)
13.05.2020 08:21 7,9 C 88 % 1010,2 hPa 0,4 l/m 12,3 km/h (2 Bft) SW 234 0 min 25 W/m 6,0 C 3,9 C 24,1 km/h (4 Bft)
13.05.2020 08:24 7,8 C 87 % 1010,2 hPa 0,8 l/m 15,4 km/h (3 Bft) W 260 0 min 26 W/m 5,8 C 2,3 C 25,7 km/h (4 Bft)
13.05.2020 08:27 7,7 C 87 % 1010,3 hPa 0,6 l/m 15,5 km/h (3 Bft) W-SW 244 0 min 26 W/m 5,7 C 2,1 C 27,4 km/h (5 Bft)
13.05.2020 08:30 7,6 C 87 % 1010,3 hPa 0,2 l/m 12,9 km/h (3 Bft) W-SW 252 0 min 23 W/m 5,6 C 3,3 C 29,0 km/h (5 Bft)
13.05.2020 08:33 7,4 C 88 % 1010,2 hPa 0,4 l/m 9,4 km/h (2 Bft) W-SW 250 0 min 28 W/m 5,5 C 5,1 C 20,9 km/h (4 Bft)
13.05.2020 08:36 7,4 C 88 % 1010,2 hPa 0,0 l/m 5,8 km/h (2 Bft) W-SW 245 0 min 33 W/m 5,5 C 7,4 C 12,9 km/h (3 Bft)
13.05.2020 08:39 7,4 C 88 % 1010,2 hPa 0,2 l/m 10,0 km/h (2 Bft) SW 236 0 min 60 W/m 5,5 C 4,7 C 19,3 km/h (3 Bft)
13.05.2020 08:42 7,3 C 88 % 1010,3 hPa 0,0 l/m 11,7 km/h (2 Bft) W 259 0 min 44 W/m 5,4 C 3,6 C 20,9 km/h (4 Bft)
13.05.2020 08:45 7,2 C 88 % 1010,2 hPa 0,2 l/m 12,3 km/h (2 Bft) S-SW 209 0 min 32 W/m 5,3 C 3,1 C 25,7 km/h (4 Bft)
13.05.2020 08:48 7,2 C 88 % 1010,3 hPa 0,2 l/m 16,3 km/h (3 Bft) SW 218 0 min 44 W/m 5,3 C 1,2 C 25,7 km/h (4 Bft)
13.05.2020 08:51 7,1 C 89 % 1010,3 hPa 0,0 l/m 12,3 km/h (2 Bft) W-SW 244 0 min 30 W/m 5,4 C 3,0 C 19,3 km/h (3 Bft)
13.05.2020 08:54 7,0 C 89 % 1010,3 hPa 0,0 l/m 12,1 km/h (2 Bft) SW 224 0 min 35 W/m 5,3 C 3,0 C 22,5 km/h (4 Bft)
13.05.2020 08:57 6,9 C 89 % 1010,3 hPa 0,4 l/m 10,1 km/h (2 Bft) S-SW 209 0 min 49 W/m 5,2 C 4,1 C 19,3 km/h (3 Bft)
13.05.2020 09:00 6,9 C 90 % 1010,3 hPa 0,0 l/m 10,8 km/h (2 Bft) S-SW 212 0 min 28 W/m 5,4 C 3,7 C 17,7 km/h (3 Bft)
13.05.2020 09:03 6,9 C 90 % 1010,3 hPa 0,2 l/m 10,4 km/h (2 Bft) S 180 0 min 25 W/m 5,4 C 3,9 C 22,5 km/h (4 Bft)
13.05.2020 09:06 7,0 C 90 % 1010,3 hPa 0,0 l/m 11,5 km/h (2 Bft) W-SW 248 0 min 39 W/m 5,5 C 3,3 C 19,3 km/h (3 Bft)
13.05.2020 09:09 6,9 C 90 % 1010,3 hPa 0,0 l/m 10,2 km/h (2 Bft) W-SW 242 0 min 44 W/m 5,4 C 4,0 C 19,3 km/h (3 Bft)
13.05.2020 09:12 6,9 C 90 % 1010,3 hPa 0,0 l/m 13,6 km/h (3 Bft) SW 225 0 min 42 W/m 5,4 C 2,1 C 22,5 km/h (4 Bft)
13.05.2020 09:15 6,9 C 90 % 1010,4 hPa 0,2 l/m 14,6 km/h (3 Bft) SW 231 0 min 62 W/m 5,4 C 1,6 C 25,7 km/h (4 Bft)
13.05.2020 09:18 6,9 C 91 % 1010,4 hPa 0,0 l/m 11,2 km/h (2 Bft) SW 216 0 min 58 W/m 5,5 C 3,4 C 22,5 km/h (4 Bft)
13.05.2020 09:21 6,9 C 91 % 1010,4 hPa 0,0 l/m 11,4 km/h (2 Bft) W 281 0 min 53 W/m 5,5 C 3,3 C 19,3 km/h (3 Bft)
13.05.2020 09:24 6,9 C 91 % 1010,5 hPa 0,0 l/m 8,5 km/h (2 Bft) W-SW 249 0 min 90 W/m 5,5 C 5,2 C 19,3 km/h (3 Bft)
13.05.2020 09:27 6,9 C 91 % 1010,5 hPa 0,0 l/m 8,4 km/h (2 Bft) S-SW 209 0 min 109 W/m 5,5 C 5,3 C 17,7 km/h (3 Bft)
13.05.2020 09:30 6,9 C 91 % 1010,4 hPa 0,0 l/m 7,0 km/h (2 Bft) W 269 0 min 83 W/m 5,5 C 6,4 C 14,5 km/h (3 Bft)
13.05.2020 09:33 6,9 C 91 % 1010,4 hPa 0,0 l/m 10,5 km/h (2 Bft) W-SW 246 0 min 77 W/m 5,5 C 3,8 C 16,1 km/h (3 Bft)
13.05.2020 09:36 7,0 C 91 % 1010,4 hPa 0,2 l/m 9,4 km/h (2 Bft) W-SW 244 0 min 100 W/m 5,6 C 4,7 C 17,7 km/h (3 Bft)
13.05.2020 09:39 7,0 C 91 % 1010,5 hPa 0,0 l/m 6,6 km/h (2 Bft) W 277 0 min 105 W/m 5,6 C 6,9 C 14,5 km/h (3 Bft)
13.05.2020 09:42 7,1 C 91 % 1010,5 hPa 0,0 l/m 5,3 km/h (1 Bft) W 275 0 min 95 W/m 5,7 C 7,1 C 12,9 km/h (3 Bft)
13.05.2020 09:45 7,1 C 92 % 1010,5 hPa 0,0 l/m 4,6 km/h (1 Bft) W 273 0 min 104 W/m 5,9 C 7,1 C 11,3 km/h (2 Bft)
13.05.2020 09:48 7,1 C 92 % 1010,5 hPa 0,0 l/m 4,3 km/h (1 Bft) W-SW 255 0 min 97 W/m 5,9 C 7,1 C 12,9 km/h (3 Bft)
13.05.2020 09:51 7,1 C 92 % 1010,5 hPa 0,0 l/m 4,2 km/h (1 Bft) W-SW 254 0 min 102 W/m 5,9 C 7,1 C 11,3 km/h (2 Bft)
13.05.2020 09:54 7,1 C 92 % 1010,6 hPa 0,0 l/m 3,8 km/h (1 Bft) W-SW 258 0 min 127 W/m 5,9 C 7,1 C 11,3 km/h (2 Bft)
13.05.2020 09:57 7,1 C 92 % 1010,6 hPa 0,0 l/m 3,7 km/h (1 Bft) W-SW 258 0 min 113 W/m 5,9 C 7,1 C 6,4 km/h (2 Bft)
13.05.2020 10:00 7,1 C 92 % 1010,6 hPa 0,0 l/m 4,0 km/h (1 Bft) W 259 0 min 105 W/m 5,9 C 7,1 C 9,7 km/h (2 Bft)
13.05.2020 10:03 7,1 C 92 % 1010,6 hPa 0,0 l/m 3,9 km/h (1 Bft) W 259 0 min 125 W/m 5,9 C 7,1 C 9,7 km/h (2 Bft)
13.05.2020 10:06 7,1 C 92 % 1010,6 hPa 0,0 l/m 3,5 km/h (1 Bft) W 259 0 min 139 W/m 5,9 C 7,1 C 9,7 km/h (2 Bft)
13.05.2020 10:09 7,1 C 92 % 1010,6 hPa 0,0 l/m 3,9 km/h (1 Bft) W 259 0 min 134 W/m 5,9 C 7,1 C 9,7 km/h (2 Bft)
13.05.2020 10:12 7,1 C 92 % 1010,6 hPa 0,0 l/m 4,0 km/h (1 Bft) W 272 0 min 120 W/m 5,9 C 7,1 C 9,7 km/h (2 Bft)
13.05.2020 10:15 7,2 C 92 % 1010,6 hPa 0,0 l/m 5,9 km/h (2 Bft) W 279 0 min 160 W/m 6,0 C 7,2 C 12,9 km/h (3 Bft)
13.05.2020 10:18 7,2 C 92 % 1010,6 hPa 0,0 l/m 4,5 km/h (1 Bft) NW 317 0 min 197 W/m 6,0 C 7,2 C 11,3 km/h (2 Bft)
13.05.2020 10:21 7,2 C 92 % 1010,5 hPa 0,0 l/m 2,8 km/h (1 Bft) NW 317 0 min 220 W/m 6,0 C 7,2 C 6,4 km/h (2 Bft)
13.05.2020 10:24 7,2 C 92 % 1010,5 hPa 0,0 l/m 3,3 km/h (1 Bft) NW 316 0 min 153 W/m 6,0 C 7,2 C 6,4 km/h (2 Bft)
13.05.2020 10:27 7,2 C 92 % 1010,5 hPa 0,0 l/m 4,1 km/h (1 Bft) NW 316 0 min 188 W/m 6,0 C 7,2 C 8,0 km/h (2 Bft)
13.05.2020 10:30 7,2 C 92 % 1010,6 hPa 0,0 l/m 3,2 km/h (1 Bft) NW 316 0 min 227 W/m 6,0 C 7,2 C 6,4 km/h (2 Bft)
13.05.2020 10:33 7,2 C 92 % 1010,5 hPa 0,0 l/m 3,1 km/h (1 Bft) NW 316 0 min 183 W/m 6,0 C 7,2 C 6,4 km/h (2 Bft)
13.05.2020 10:36 7,2 C 92 % 1010,5 hPa 0,0 l/m 1,1 km/h (1 Bft) NW 316 0 min 221 W/m 6,0 C 7,2 C 4,8 km/h (1 Bft)
13.05.2020 10:39 7,3 C 92 % 1010,4 hPa 0,0 l/m 1,2 km/h (1 Bft) NW 316 0 min 216 W/m 6,1 C 7,3 C 3,2 km/h (1 Bft)
13.05.2020 10:42 7,3 C 92 % 1010,4 hPa 0,0 l/m 1,0 km/h (0 Bft) NW 316 0 min 199 W/m 6,1 C 7,3 C 4,8 km/h (1 Bft)
13.05.2020 10:45 7,4 C 93 % 1010,5 hPa 0,0 l/m 6,8 km/h (2 Bft) N-NW 344 3 min 603 W/m 6,3 C 7,1 C 12,9 km/h (3 Bft)
13.05.2020 10:48 7,8 C 93 % 1010,5 hPa 0,0 l/m 6,6 km/h (2 Bft) N-NW 330 3 min 749 W/m 6,7 C 7,7 C 12,9 km/h (3 Bft)
13.05.2020 10:51 8,0 C 93 % 1010,5 hPa 0,0 l/m 5,3 km/h (1 Bft) N-NW 335 0 min 374 W/m 6,9 C 8,0 C 12,9 km/h (3 Bft)
13.05.2020 10:54 8,2 C 93 % 1010,4 hPa 0,0 l/m 6,8 km/h (2 Bft) NW 326 0 min 330 W/m 7,1 C 7,9 C 12,9 km/h (3 Bft)
13.05.2020 10:57 8,2 C 93 % 1010,4 hPa 0,0 l/m 7,3 km/h (2 Bft) NW 321 0 min 350 W/m 7,1 C 7,5 C 12,9 km/h (3 Bft)
13.05.2020 11:00 8,3 C 93 % 1010,5 hPa 0,0 l/m 5,9 km/h (2 Bft) NW 321 0 min 323 W/m 7,2 C 8,3 C 12,9 km/h (3 Bft)
13.05.2020 11:03 8,4 C 93 % 1010,5 hPa 0,0 l/m 6,6 km/h (2 Bft) W 262 3 min 397 W/m 7,3 C 8,3 C 12,9 km/h (3 Bft)
13.05.2020 11:06 8,5 C 93 % 1010,5 hPa 0,0 l/m 3,0 km/h (1 Bft) W 262 0 min 385 W/m 7,4 C 8,5 C 9,7 km/h (2 Bft)
13.05.2020 11:09 8,6 C 93 % 1010,5 hPa 0,0 l/m 3,8 km/h (1 Bft) W 265 3 min 464 W/m 7,5 C 8,6 C 9,7 km/h (2 Bft)
13.05.2020 11:12 8,7 C 93 % 1010,5 hPa 0,0 l/m 4,5 km/h (1 Bft) W 266 3 min 550 W/m 7,6 C 8,7 C 11,3 km/h (2 Bft)
13.05.2020 11:15 8,8 C 93 % 1010,5 hPa 0,0 l/m 6,1 km/h (2 Bft) NW 313 0 min 385 W/m 7,7 C 8,8 C 12,9 km/h (3 Bft)
13.05.2020 11:18 8,9 C 93 % 1010,6 hPa 0,0 l/m 5,9 km/h (2 Bft) N-NW 339 3 min 415 W/m 7,8 C 8,9 C 12,9 km/h (3 Bft)
13.05.2020 11:21 8,8 C 92 % 1010,5 hPa 0,0 l/m 6,3 km/h (2 Bft) N 350 3 min 438 W/m 7,6 C 8,8 C 12,9 km/h (3 Bft)
13.05.2020 11:24 8,8 C 92 % 1010,6 hPa 0,0 l/m 6,1 km/h (2 Bft) W 277 0 min 211 W/m 7,6 C 8,8 C 12,9 km/h (3 Bft)
13.05.2020 11:27 8,7 C 92 % 1010,6 hPa 0,0 l/m 4,0 km/h (1 Bft) W 278 0 min 213 W/m 7,5 C 8,7 C 9,7 km/h (2 Bft)
13.05.2020 11:30 8,8 C 92 % 1010,6 hPa 0,0 l/m 4,5 km/h (1 Bft) N-NW 341 3 min 884 W/m 7,6 C 8,8 C 11,3 km/h (2 Bft)
13.05.2020 11:33 8,8 C 91 % 1010,6 hPa 0,0 l/m 8,8 km/h (2 Bft) NW 325 3 min 830 W/m 7,4 C 7,0 C 16,1 km/h (3 Bft)
13.05.2020 11:36 8,9 C 91 % 1010,6 hPa 0,0 l/m 6,2 km/h (2 Bft) N-NW 327 0 min 160 W/m 7,5 C 8,9 C 12,9 km/h (3 Bft)
13.05.2020 11:39 8,8 C 90 % 1010,6 hPa 0,0 l/m 5,0 km/h (1 Bft) N-NW 327 0 min 188 W/m 7,3 C 8,8 C 8,0 km/h (2 Bft)
13.05.2020 11:42 8,9 C 90 % 1010,6 hPa 0,0 l/m 3,9 km/h (1 Bft) NW 323 0 min 188 W/m 7,4 C 8,9 C 9,7 km/h (2 Bft)
13.05.2020 11:45 9,0 C 90 % 1010,7 hPa 0,0 l/m 4,1 km/h (1 Bft) NW 323 3 min 633 W/m 7,4 C 9,0 C 9,7 km/h (2 Bft)
13.05.2020 11:48 9,2 C 90 % 1010,6 hPa 0,0 l/m 5,1 km/h (1 Bft) NW 325 3 min 677 W/m 7,6 C 9,2 C 9,7 km/h (2 Bft)
13.05.2020 11:51 9,4 C 90 % 1010,6 hPa 0,0 l/m 4,2 km/h (1 Bft) NW 319 3 min 893 W/m 7,8 C 9,4 C 8,0 km/h (2 Bft)
13.05.2020 11:54 9,7 C 90 % 1010,7 hPa 0,0 l/m 4,6 km/h (1 Bft) NW 308 3 min 888 W/m 8,1 C 9,7 C 9,7 km/h (2 Bft)
13.05.2020 11:57 9,9 C 89 % 1010,6 hPa 0,0 l/m 6,7 km/h (2 Bft) N-NW 342 3 min 1035 W/m 8,2 C 9,7 C 16,1 km/h (3 Bft)
13.05.2020 12:00 10,2 C 88 % 1010,6 hPa 0,0 l/m 8,5 km/h (2 Bft) N-NW 348 0 min 271 W/m 8,3 C 8,7 C 17,7 km/h (3 Bft)
13.05.2020 12:03 10,3 C 87 % 1010,6 hPa 0,0 l/m 5,8 km/h (2 Bft) N 350 0 min 239 W/m 8,2 C 10,3 C 17,7 km/h (3 Bft)
13.05.2020 12:06 10,3 C 86 % 1010,7 hPa 0,0 l/m 5,4 km/h (2 Bft) N-NO 33 0 min 218 W/m 8,1 C 10,3 C 12,9 km/h (3 Bft)
13.05.2020 12:09 10,4 C 85 % 1010,7 hPa 0,0 l/m 7,5 km/h (2 Bft) N-NW 342 0 min 241 W/m 8,0 C 9,6 C 17,7 km/h (3 Bft)
13.05.2020 12:12 10,4 C 85 % 1010,7 hPa 0,0 l/m 4,8 km/h (1 Bft) N-NW 338 3 min 830 W/m 8,0 C 10,4 C 8,0 km/h (2 Bft)
13.05.2020 12:15 10,6 C 84 % 1010,7 hPa 0,0 l/m 3,3 km/h (1 Bft) N-NW 338 3 min 814 W/m 8,0 C 10,6 C 8,0 km/h (2 Bft)
13.05.2020 12:18 10,7 C 84 % 1010,8 hPa 0,0 l/m 4,7 km/h (1 Bft) N-NW 341 3 min 814 W/m 8,1 C 10,7 C 9,7 km/h (2 Bft)
13.05.2020 12:21 10,8 C 83 % 1010,8 hPa 0,0 l/m 4,4 km/h (1 Bft) N-NW 341 0 min 290 W/m 8,0 C 10,8 C 9,7 km/h (2 Bft)
13.05.2020 12:24 10,9 C 83 % 1010,7 hPa 0,0 l/m 6,9 km/h (2 Bft) N-NW 338 3 min 763 W/m 8,1 C 10,6 C 16,1 km/h (3 Bft)
13.05.2020 12:27 11,1 C 82 % 1010,8 hPa 0,0 l/m 5,2 km/h (1 Bft) N-NW 334 3 min 867 W/m 8,1 C 11,1 C 9,7 km/h (2 Bft)
13.05.2020 12:30 11,2 C 81 % 1010,8 hPa 0,0 l/m 4,5 km/h (1 Bft) NW 326 0 min 163 W/m 8,1 C 11,2 C 12,9 km/h (3 Bft)
13.05.2020 12:33 11,2 C 80 % 1010,8 hPa 0,0 l/m 5,8 km/h (2 Bft) N-NW 328 3 min 775 W/m 7,9 C 11,2 C 16,1 km/h (3 Bft)
13.05.2020 12:36 11,3 C 80 % 1010,8 hPa 0,0 l/m 6,4 km/h (2 Bft) N-NW 331 3 min 766 W/m 8,0 C 11,3 C 12,9 km/h (3 Bft)
13.05.2020 12:39 11,4 C 79 % 1010,8 hPa 0,0 l/m 5,5 km/h (2 Bft) N-NW 330 3 min 802 W/m 7,9 C 11,4 C 9,7 km/h (2 Bft)
13.05.2020 12:42 11,4 C 77 % 1010,9 hPa 0,0 l/m 7,0 km/h (2 Bft) N-NW 329 3 min 844 W/m 7,5 C 11,0 C 17,7 km/h (3 Bft)
13.05.2020 12:45 11,7 C 77 % 1010,9 hPa 0,0 l/m 7,2 km/h (2 Bft) NW 324 3 min 921 W/m 7,8 C 11,2 C 12,9 km/h (3 Bft)
13.05.2020 12:48 11,9 C 77 % 1011,0 hPa 0,0 l/m 5,7 km/h (2 Bft) N-NO 28 3 min 995 W/m 8,0 C 11,9 C 16,1 km/h (3 Bft)
13.05.2020 12:51 12,1 C 76 % 1010,9 hPa 0,0 l/m 7,9 km/h (2 Bft) N-NW 337 3 min 995 W/m 8,0 C 11,1 C 19,3 km/h (3 Bft)
13.05.2020 12:54 12,2 C 75 % 1011,0 hPa 0,0 l/m 12,0 km/h (2 Bft) N-NW 327 0 min 211 W/m 7,9 C 9,0 C 19,3 km/h (3 Bft)
13.05.2020 12:57 12,1 C 74 % 1011,0 hPa 0,0 l/m 8,5 km/h (2 Bft) NW 313 0 min 185 W/m 7,6 C 10,8 C 16,1 km/h (3 Bft)
13.05.2020 13:00 11,9 C 73 % 1011,0 hPa 0,0 l/m 9,5 km/h (2 Bft) N-NW 336 0 min 220 W/m 7,2 C 10,0 C 16,1 km/h (3 Bft)
13.05.2020 13:03 11,8 C 73 % 1011,0 hPa 0,0 l/m 5,6 km/h (2 Bft) N-NW 338 0 min 193 W/m 7,1 C 11,8 C 16,1 km/h (3 Bft)
13.05.2020 13:06 11,7 C 72 % 1011,0 hPa 0,0 l/m 7,5 km/h (2 Bft) N-NW 346 0 min 232 W/m 6,8 C 11,0 C 17,7 km/h (3 Bft)
13.05.2020 13:09 11,7 C 73 % 1011,1 hPa 0,0 l/m 9,8 km/h (2 Bft) N-NW 338 3 min 1081 W/m 7,0 C 9,6 C 17,7 km/h (3 Bft)
13.05.2020 13:12 11,6 C 72 % 1011,1 hPa 0,0 l/m 8,7 km/h (2 Bft) N 355 0 min 206 W/m 6,7 C 10,1 C 19,3 km/h (3 Bft)
13.05.2020 13:15 11,5 C 72 % 1011,1 hPa 0,0 l/m 11,2 km/h (2 Bft) NW 315 0 min 218 W/m 6,6 C 8,6 C 19,3 km/h (3 Bft)
13.05.2020 13:18 11,4 C 72 % 1011,1 hPa 0,0 l/m 11,6 km/h (2 Bft) W 273 3 min 954 W/m 6,5 C 8,3 C 19,3 km/h (3 Bft)
13.05.2020 13:21 11,4 C 73 % 1011,1 hPa 0,0 l/m 10,1 km/h (2 Bft) NW 307 3 min 946 W/m 6,7 C 9,1 C 17,7 km/h (3 Bft)
13.05.2020 13:24 11,6 C 73 % 1011,1 hPa 0,0 l/m 8,0 km/h (2 Bft) N-NW 335 3 min 754 W/m 6,9 C 10,5 C 16,1 km/h (3 Bft)
13.05.2020 13:27 11,8 C 73 % 1011,1 hPa 0,0 l/m 9,7 km/h (2 Bft) N-NW 346 3 min 954 W/m 7,1 C 9,7 C 17,7 km/h (3 Bft)
13.05.2020 13:30 11,9 C 72 % 1011,1 hPa 0,0 l/m 9,4 km/h (2 Bft) N 9 3 min 976 W/m 7,0 C 10,0 C 17,7 km/h (3 Bft)
13.05.2020 13:33 12,1 C 72 % 1011,1 hPa 0,0 l/m 8,4 km/h (2 Bft) NW 325 3 min 984 W/m 7,2 C 10,8 C 17,7 km/h (3 Bft)
13.05.2020 13:36 12,3 C 71 % 1011,1 hPa 0,0 l/m 10,2 km/h (2 Bft) N-NW 341 3 min 939 W/m 7,2 C 10,0 C 19,3 km/h (3 Bft)
13.05.2020 13:39 12,4 C 70 % 1011,1 hPa 0,0 l/m 9,0 km/h (2 Bft) NW 320 3 min 939 W/m 7,1 C 10,8 C 19,3 km/h (3 Bft)
13.05.2020 13:42 12,4 C 68 % 1011,2 hPa 0,0 l/m 11,8 km/h (2 Bft) N 349 0 min 329 W/m 6,7 C 9,4 C 19,3 km/h (3 Bft)
13.05.2020 13:45 12,4 C 68 % 1011,2 hPa 0,0 l/m 11,2 km/h (2 Bft) NW 312 0 min 329 W/m 6,7 C 9,6 C 19,3 km/h (3 Bft)
13.05.2020 13:48 12,5 C 68 % 1011,1 hPa 0,0 l/m 6,4 km/h (2 Bft) N-NW 348 3 min 976 W/m 6,8 C 12,5 C 12,9 km/h (3 Bft)
13.05.2020 13:51 12,6 C 69 % 1011,2 hPa 0,0 l/m 9,8 km/h (2 Bft) NW 306 3 min 566 W/m 7,1 C 10,6 C 22,5 km/h (4 Bft)
13.05.2020 13:54 12,6 C 69 % 1011,2 hPa 0,0 l/m 9,9 km/h (2 Bft) N-NW 348 0 min 339 W/m 7,1 C 10,5 C 25,7 km/h (4 Bft)
13.05.2020 13:57 12,5 C 69 % 1011,2 hPa 0,0 l/m 10,1 km/h (2 Bft) N-NW 328 0 min 265 W/m 7,0 C 10,3 C 24,1 km/h (4 Bft)
13.05.2020 14:00 12,5 C 69 % 1011,2 hPa 0,0 l/m 8,4 km/h (2 Bft) N 355 0 min 207 W/m 7,0 C 11,2 C 16,1 km/h (3 Bft)
13.05.2020 14:03 12,4 C 68 % 1011,2 hPa 0,0 l/m 9,2 km/h (2 Bft) N 360 0 min 207 W/m 6,7 C 10,7 C 17,7 km/h (3 Bft)
13.05.2020 14:06 12,3 C 68 % 1011,3 hPa 0,0 l/m 9,7 km/h (2 Bft) N 5 3 min 977 W/m 6,6 C 10,3 C 22,5 km/h (4 Bft)
13.05.2020 14:09 12,4 C 69 % 1011,3 hPa 0,0 l/m 10,4 km/h (2 Bft) N 355 3 min 1069 W/m 6,9 C 10,0 C 17,7 km/h (3 Bft)
13.05.2020 14:12 12,4 C 69 % 1011,3 hPa 0,0 l/m 8,6 km/h (2 Bft) N-NW 340 3 min 1069 W/m 6,9 C 11,0 C 17,7 km/h (3 Bft)
13.05.2020 14:15 12,5 C 69 % 1011,2 hPa 0,0 l/m 9,3 km/h (2 Bft) NO 38 0 min 206 W/m 7,0 C 10,7 C 19,3 km/h (3 Bft)
13.05.2020 14:18 12,6 C 69 % 1011,2 hPa 0,0 l/m 11,5 km/h (2 Bft) N-NW 340 0 min 206 W/m 7,1 C 9,7 C 22,5 km/h (4 Bft)
13.05.2020 14:21 12,6 C 69 % 1011,3 hPa 0,0 l/m 7,6 km/h (2 Bft) N-NW 345 3 min 797 W/m 7,1 C 11,8 C 19,3 km/h (3 Bft)
13.05.2020 14:24 12,7 C 70 % 1011,3 hPa 0,0 l/m 9,1 km/h (2 Bft) NW 318 3 min 1039 W/m 7,4 C 11,1 C 24,1 km/h (4 Bft)
13.05.2020 14:27 12,8 C 70 % 1011,3 hPa 0,0 l/m 8,8 km/h (2 Bft) N-NO 17 0 min 264 W/m 7,5 C 11,3 C 19,3 km/h (3 Bft)
13.05.2020 14:30 12,8 C 68 % 1011,4 hPa 0,0 l/m 9,0 km/h (2 Bft) N-NO 22 0 min 248 W/m 7,0 C 11,2 C 22,5 km/h (4 Bft)
13.05.2020 14:33 12,8 C 69 % 1011,4 hPa 0,0 l/m 9,4 km/h (2 Bft) N 349 3 min 1016 W/m 7,3 C 11,0 C 24,1 km/h (4 Bft)
13.05.2020 14:36 12,9 C 69 % 1011,4 hPa 0,0 l/m 7,8 km/h (2 Bft) N 350 0 min 244 W/m 7,4 C 12,0 C 16,1 km/h (3 Bft)
13.05.2020 14:39 12,9 C 69 % 1011,4 hPa 0,0 l/m 9,2 km/h (2 Bft) N 355 3 min 865 W/m 7,4 C 11,2 C 22,5 km/h (4 Bft)
13.05.2020 14:42 13,0 C 69 % 1011,3 hPa 0,0 l/m 12,8 km/h (3 Bft) N-NW 344 3 min 838 W/m 7,4 C 9,6 C 24,1 km/h (4 Bft)
13.05.2020 14:45 13,1 C 68 % 1011,4 hPa 0,0 l/m 13,3 km/h (3 Bft) N-NW 339 3 min 830 W/m 7,3 C 9,5 C 22,5 km/h (4 Bft)
13.05.2020 14:48 13,1 C 66 % 1011,4 hPa 0,0 l/m 13,7 km/h (3 Bft) NW 309 3 min 824 W/m 6,9 C 9,4 C 27,4 km/h (5 Bft)
13.05.2020 14:51 13,1 C 64 % 1011,4 hPa 0,0 l/m 9,6 km/h (2 Bft) N 355 3 min 816 W/m 6,4 C 11,2 C 24,1 km/h (4 Bft)
13.05.2020 14:54 12,9 C 65 % 1011,4 hPa 0,0 l/m 9,8 km/h (2 Bft) N 355 3 min 802 W/m 6,5 C 10,9 C 20,9 km/h (4 Bft)
13.05.2020 14:57 12,9 C 64 % 1011,4 hPa 0,0 l/m 11,5 km/h (2 Bft) N 350 3 min 798 W/m 6,3 C 10,1 C 22,5 km/h (4 Bft)
13.05.2020 15:00 13,0 C 65 % 1011,4 hPa 0,0 l/m 9,8 km/h (2 Bft) N-NW 346 3 min 802 W/m 6,6 C 11,0 C 22,5 km/h (4 Bft)
13.05.2020 15:03 13,1 C 65 % 1011,3 hPa 0,0 l/m 10,1 km/h (2 Bft) NW 320 3 min 802 W/m 6,7 C 11,0 C 22,5 km/h (4 Bft)
13.05.2020 15:06 13,1 C 64 % 1011,4 hPa 0,0 l/m 11,2 km/h (2 Bft) N 355 3 min 795 W/m 6,4 C 10,4 C 22,5 km/h (4 Bft)
13.05.2020 15:09 13,1 C 64 % 1011,4 hPa 0,0 l/m 8,7 km/h (2 Bft) O-NO 74 3 min 805 W/m 6,4 C 11,7 C 19,3 km/h (3 Bft)
13.05.2020 15:12 13,2 C 63 % 1011,4 hPa 0,0 l/m 7,3 km/h (2 Bft) N-NW 327 3 min 861 W/m 6,3 C 12,6 C 16,1 km/h (3 Bft)
13.05.2020 15:15 13,2 C 62 % 1011,4 hPa 0,0 l/m 10,5 km/h (2 Bft) N-NW 337 3 min 983 W/m 6,1 C 10,9 C 27,4 km/h (5 Bft)
13.05.2020 15:18 13,2 C 62 % 1011,4 hPa 0,0 l/m 7,3 km/h (2 Bft) N-NW 348 3 min 939 W/m 6,1 C 12,6 C 14,5 km/h (3 Bft)
13.05.2020 15:21 13,3 C 64 % 1011,5 hPa 0,0 l/m 8,2 km/h (2 Bft) N-NW 348 3 min 606 W/m 6,6 C 12,2 C 16,1 km/h (3 Bft)
13.05.2020 15:24 13,3 C 62 % 1011,5 hPa 0,0 l/m 13,5 km/h (3 Bft) N 9 3 min 443 W/m 6,2 C 9,7 C 27,4 km/h (5 Bft)
13.05.2020 15:27 13,2 C 62 % 1011,5 hPa 0,0 l/m 11,4 km/h (2 Bft) N-NW 331 0 min 394 W/m 6,1 C 10,5 C 19,3 km/h (3 Bft)
13.05.2020 15:30 13,0 C 63 % 1011,5 hPa 0,0 l/m 10,5 km/h (2 Bft) N-NW 333 0 min 390 W/m 6,1 C 10,7 C 20,9 km/h (4 Bft)
13.05.2020 15:33 12,9 C 64 % 1011,4 hPa 0,0 l/m 11,4 km/h (2 Bft) N 11 3 min 399 W/m 6,3 C 10,1 C 22,5 km/h (4 Bft)
13.05.2020 15:36 12,8 C 64 % 1011,4 hPa 0,0 l/m 9,4 km/h (2 Bft) N-NW 336 3 min 420 W/m 6,2 C 11,0 C 17,7 km/h (3 Bft)
13.05.2020 15:39 12,7 C 66 % 1011,5 hPa 0,0 l/m 11,2 km/h (2 Bft) N-NO 20 3 min 403 W/m 6,5 C 10,0 C 20,9 km/h (4 Bft)
13.05.2020 15:42 12,6 C 65 % 1011,5 hPa 0,0 l/m 8,9 km/h (2 Bft) N 355 3 min 466 W/m 6,2 C 11,1 C 20,9 km/h (4 Bft)
13.05.2020 15:45 12,6 C 66 % 1011,5 hPa 0,0 l/m 8,8 km/h (2 Bft) N 350 3 min 529 W/m 6,4 C 11,1 C 17,7 km/h (3 Bft)
13.05.2020 15:48 12,6 C 67 % 1011,5 hPa 0,0 l/m 8,9 km/h (2 Bft) N-NW 332 3 min 803 W/m 6,6 C 11,1 C 16,1 km/h (3 Bft)
13.05.2020 15:51 12,6 C 66 % 1011,5 hPa 0,0 l/m 9,7 km/h (2 Bft) N 10 0 min 341 W/m 6,4 C 10,6 C 19,3 km/h (3 Bft)
13.05.2020 15:54 12,7 C 66 % 1011,5 hPa 0,0 l/m 7,2 km/h (2 Bft) N-NW 341 0 min 327 W/m 6,5 C 12,2 C 16,1 km/h (3 Bft)
13.05.2020 15:57 12,6 C 67 % 1011,5 hPa 0,0 l/m 6,3 km/h (2 Bft) N-NO 12 0 min 311 W/m 6,6 C 12,6 C 16,1 km/h (3 Bft)
13.05.2020 16:00 12,6 C 66 % 1011,6 hPa 0,0 l/m 7,8 km/h (2 Bft) N-NO 19 0 min 290 W/m 6,4 C 11,7 C 19,3 km/h (3 Bft)
13.05.2020 16:03 12,5 C 67 % 1011,5 hPa 0,0 l/m 5,7 km/h (2 Bft) N 355 0 min 265 W/m 6,5 C 12,5 C 16,1 km/h (3 Bft)
13.05.2020 16:06 12,4 C 68 % 1011,5 hPa 0,0 l/m 4,6 km/h (1 Bft) N-NW 329 0 min 262 W/m 6,7 C 12,4 C 12,9 km/h (3 Bft)
13.05.2020 16:09 12,3 C 68 % 1011,5 hPa 0,0 l/m 5,3 km/h (1 Bft) N 355 0 min 251 W/m 6,6 C 12,3 C 14,5 km/h (3 Bft)
13.05.2020 16:12 12,2 C 69 % 1011,5 hPa 0,0 l/m 3,7 km/h (1 Bft) N-NW 338 0 min 260 W/m 6,7 C 12,2 C 14,5 km/h (3 Bft)
13.05.2020 16:15 12,1 C 68 % 1011,5 hPa 0,0 l/m 4,1 km/h (1 Bft) N-NO 19 0 min 295 W/m 6,4 C 12,1 C 9,7 km/h (2 Bft)
13.05.2020 16:18 11,9 C 69 % 1011,5 hPa 0,0 l/m 5,2 km/h (1 Bft) N 5 0 min 229 W/m 6,4 C 11,9 C 17,7 km/h (3 Bft)
13.05.2020 16:21 11,8 C 70 % 1011,5 hPa 0,0 l/m 7,5 km/h (2 Bft) N 355 0 min 155 W/m 6,5 C 11,1 C 14,5 km/h (3 Bft)
13.05.2020 16:24 11,7 C 70 % 1011,5 hPa 0,0 l/m 5,1 km/h (1 Bft) N-NO 12 0 min 146 W/m 6,4 C 11,7 C 12,9 km/h (3 Bft)
13.05.2020 16:27 11,6 C 70 % 1011,5 hPa 0,0 l/m 4,3 km/h (1 Bft) NO 55 0 min 160 W/m 6,3 C 11,6 C 11,3 km/h (2 Bft)
13.05.2020 16:30 11,4 C 71 % 1011,6 hPa 0,0 l/m 5,1 km/h (1 Bft) N 5 0 min 162 W/m 6,3 C 11,4 C 14,5 km/h (3 Bft)
13.05.2020 16:33 11,3 C 70 % 1011,6 hPa 0,0 l/m 6,0 km/h (2 Bft) N 10 0 min 158 W/m 6,0 C 11,3 C 12,9 km/h (3 Bft)
13.05.2020 16:36 11,2 C 70 % 1011,6 hPa 0,0 l/m 7,5 km/h (2 Bft) N-NO 16 0 min 162 W/m 5,9 C 10,4 C 12,9 km/h (3 Bft)
13.05.2020 16:39 11,0 C 70 % 1011,7 hPa 0,0 l/m 6,5 km/h (2 Bft) N-NW 338 0 min 185 W/m 5,7 C 11,0 C 16,1 km/h (3 Bft)
13.05.2020 16:42 10,9 C 71 % 1011,6 hPa 0,0 l/m 5,3 km/h (1 Bft) N-NO 30 0 min 199 W/m 5,9 C 10,9 C 12,9 km/h (3 Bft)
13.05.2020 16:45 10,8 C 71 % 1011,6 hPa 0,0 l/m 6,8 km/h (2 Bft) N 10 0 min 204 W/m 5,8 C 10,5 C 19,3 km/h (3 Bft)
13.05.2020 16:48 10,7 C 71 % 1011,7 hPa 0,0 l/m 5,3 km/h (1 Bft) N-NO 22 0 min 207 W/m 5,7 C 10,7 C 14,5 km/h (3 Bft)
13.05.2020 16:51 10,7 C 71 % 1011,7 hPa 0,0 l/m 4,7 km/h (1 Bft) N-NO 19 0 min 216 W/m 5,7 C 10,7 C 9,7 km/h (2 Bft)
13.05.2020 16:54 10,6 C 71 % 1011,7 hPa 0,0 l/m 6,7 km/h (2 Bft) N 9 0 min 234 W/m 5,6 C 10,4 C 14,5 km/h (3 Bft)
13.05.2020 16:57 10,6 C 72 % 1011,7 hPa 0,0 l/m 4,8 km/h (1 Bft) N-NO 13 0 min 258 W/m 5,8 C 10,6 C 12,9 km/h (3 Bft)
13.05.2020 17:00 10,6 C 72 % 1011,8 hPa 0,0 l/m 7,6 km/h (2 Bft) N-NO 16 0 min 301 W/m 5,8 C 9,8 C 17,7 km/h (3 Bft)
13.05.2020 17:03 10,6 C 72 % 1011,7 hPa 0,0 l/m 7,6 km/h (2 Bft) N 350 0 min 262 W/m 5,8 C 9,8 C 16,1 km/h (3 Bft)
13.05.2020 17:06 10,6 C 72 % 1011,8 hPa 0,0 l/m 5,3 km/h (1 Bft) N-NW 328 0 min 278 W/m 5,8 C 10,6 C 14,5 km/h (3 Bft)
13.05.2020 17:09 10,6 C 72 % 1011,8 hPa 0,0 l/m 6,9 km/h (2 Bft) N 351 0 min 183 W/m 5,8 C 10,3 C 16,1 km/h (3 Bft)
13.05.2020 17:12 10,6 C 72 % 1011,9 hPa 0,0 l/m 6,9 km/h (2 Bft) N-NW 346 0 min 146 W/m 5,8 C 10,3 C 17,7 km/h (3 Bft)
13.05.2020 17:15 10,6 C 71 % 1012,0 hPa 0,0 l/m 5,2 km/h (1 Bft) NO 46 0 min 167 W/m 5,6 C 10,6 C 12,9 km/h (3 Bft)
13.05.2020 17:18 10,5 C 71 % 1011,9 hPa 0,0 l/m 5,2 km/h (1 Bft) NW 307 0 min 142 W/m 5,5 C 10,5 C 14,5 km/h (3 Bft)
13.05.2020 17:21 10,4 C 71 % 1011,9 hPa 0,0 l/m 3,8 km/h (1 Bft) N 360 0 min 134 W/m 5,4 C 10,4 C 8,0 km/h (2 Bft)
13.05.2020 17:24 10,4 C 71 % 1011,9 hPa 0,0 l/m 6,2 km/h (2 Bft) NW 321 0 min 144 W/m 5,4 C 10,4 C 14,5 km/h (3 Bft)
13.05.2020 17:27 10,3 C 71 % 1011,9 hPa 0,0 l/m 5,6 km/h (2 Bft) N 5 0 min 139 W/m 5,3 C 10,3 C 14,5 km/h (3 Bft)
13.05.2020 17:30 10,3 C 70 % 1011,9 hPa 0,0 l/m 6,5 km/h (2 Bft) N 360 0 min 178 W/m 5,1 C 10,3 C 14,5 km/h (3 Bft)
13.05.2020 17:33 10,3 C 71 % 1011,9 hPa 0,0 l/m 6,7 km/h (2 Bft) N-NW 334 0 min 178 W/m 5,3 C 10,1 C 14,5 km/h (3 Bft)
13.05.2020 17:36 10,2 C 70 % 1011,9 hPa 0,0 l/m 6,4 km/h (2 Bft) N 355 0 min 264 W/m 5,0 C 10,2 C 12,9 km/h (3 Bft)
13.05.2020 17:39 10,2 C 69 % 1011,8 hPa 0,0 l/m 6,5 km/h (2 Bft) N-NW 334 0 min 264 W/m 4,8 C 10,2 C 16,1 km/h (3 Bft)
13.05.2020 17:42 10,3 C 69 % 1011,9 hPa 0,0 l/m 5,5 km/h (2 Bft) NO 34 0 min 265 W/m 4,9 C 10,3 C 14,5 km/h (3 Bft)
13.05.2020 17:45 10,4 C 69 % 1011,8 hPa 0,0 l/m 5,3 km/h (1 Bft) N 5 3 min 584 W/m 5,0 C 10,4 C 19,3 km/h (3 Bft)
13.05.2020 17:48 10,6 C 69 % 1011,8 hPa 0,0 l/m 6,3 km/h (2 Bft) N-NO 23 3 min 547 W/m 5,2 C 10,6 C 12,9 km/h (3 Bft)
13.05.2020 17:51 10,8 C 69 % 1011,9 hPa 0,0 l/m 6,6 km/h (2 Bft) N 360 3 min 522 W/m 5,3 C 10,7 C 17,7 km/h (3 Bft)
13.05.2020 17:54 10,9 C 68 % 1011,8 hPa 0,0 l/m 5,0 km/h (1 Bft) W 271 3 min 503 W/m 5,2 C 10,9 C 11,3 km/h (2 Bft)
13.05.2020 17:57 11,2 C 68 % 1011,9 hPa 0,0 l/m 8,1 km/h (2 Bft) W-NW 303 3 min 489 W/m 5,5 C 10,0 C 14,5 km/h (3 Bft)
13.05.2020 18:00 11,3 C 68 % 1011,8 hPa 0,0 l/m 6,7 km/h (2 Bft) W-SW 247 3 min 464 W/m 5,6 C 11,1 C 22,5 km/h (4 Bft)
13.05.2020 18:03 11,4 C 67 % 1011,8 hPa 0,0 l/m 5,6 km/h (2 Bft) N-NW 341 3 min 448 W/m 5,5 C 11,4 C 12,9 km/h (3 Bft)
13.05.2020 18:06 11,6 C 66 % 1011,8 hPa 0,0 l/m 6,7 km/h (2 Bft) N 355 3 min 429 W/m 5,5 C 11,4 C 19,3 km/h (3 Bft)
13.05.2020 18:09 11,7 C 65 % 1011,8 hPa 0,0 l/m 5,7 km/h (2 Bft) NO 39 3 min 420 W/m 5,3 C 11,7 C 16,1 km/h (3 Bft)
13.05.2020 18:12 11,7 C 65 % 1011,8 hPa 0,0 l/m 6,6 km/h (2 Bft) NO 49 3 min 406 W/m 5,3 C 11,6 C 16,1 km/h (3 Bft)
13.05.2020 18:15 11,8 C 63 % 1011,9 hPa 0,0 l/m 7,3 km/h (2 Bft) N-NO 21 3 min 401 W/m 5,0 C 11,2 C 14,5 km/h (3 Bft)
13.05.2020 18:18 11,8 C 62 % 1011,7 hPa 0,0 l/m 7,5 km/h (2 Bft) N 5 3 min 401 W/m 4,8 C 11,1 C 16,1 km/h (3 Bft)
13.05.2020 18:21 11,8 C 61 % 1011,8 hPa 0,0 l/m 6,4 km/h (2 Bft) NO 43 3 min 392 W/m 4,5 C 11,8 C 19,3 km/h (3 Bft)
13.05.2020 18:24 11,8 C 61 % 1011,8 hPa 0,0 l/m 6,6 km/h (2 Bft) N 355 3 min 388 W/m 4,5 C 11,7 C 14,5 km/h (3 Bft)
13.05.2020 18:27 11,8 C 61 % 1011,9 hPa 0,0 l/m 6,4 km/h (2 Bft) NO 40 3 min 394 W/m 4,5 C 11,8 C 12,9 km/h (3 Bft)
13.05.2020 18:30 11,7 C 59 % 1011,9 hPa 0,0 l/m 6,3 km/h (2 Bft) NW 315 0 min 90 W/m 4,0 C 11,7 C 14,5 km/h (3 Bft)
13.05.2020 18:33 11,7 C 60 % 1011,9 hPa 0,0 l/m 4,0 km/h (1 Bft) N-NW 342 0 min 74 W/m 4,2 C 11,7 C 9,7 km/h (2 Bft)
13.05.2020 18:36 11,7 C 60 % 1011,9 hPa 0,0 l/m 4,8 km/h (1 Bft) N-NW 343 0 min 70 W/m 4,2 C 11,7 C 12,9 km/h (3 Bft)
13.05.2020 18:39 11,6 C 61 % 1011,9 hPa 0,0 l/m 4,7 km/h (1 Bft) N-NW 346 0 min 69 W/m 4,3 C 11,6 C 9,7 km/h (2 Bft)
13.05.2020 18:42 11,5 C 60 % 1011,9 hPa 0,0 l/m 3,4 km/h (1 Bft) N-NW 346 0 min 63 W/m 4,0 C 11,5 C 6,4 km/h (2 Bft)
13.05.2020 18:45 11,4 C 61 % 1011,9 hPa 0,0 l/m 2,9 km/h (1 Bft) N-NW 346 0 min 58 W/m 4,2 C 11,4 C 9,7 km/h (2 Bft)
13.05.2020 18:48 11,3 C 62 % 1012,0 hPa 0,0 l/m 3,4 km/h (1 Bft) N-NW 346 0 min 49 W/m 4,3 C 11,3 C 8,0 km/h (2 Bft)
13.05.2020 18:51 11,1 C 62 % 1012,0 hPa 0,0 l/m 5,7 km/h (2 Bft) N 5 0 min 44 W/m 4,1 C 11,1 C 20,9 km/h (4 Bft)
13.05.2020 18:54 10,9 C 62 % 1012,0 hPa 0,0 l/m 3,2 km/h (1 Bft) N 5 0 min 40 W/m 3,9 C 10,9 C 6,4 km/h (2 Bft)
13.05.2020 18:57 10,7 C 63 % 1012,1 hPa 0,0 l/m 3,8 km/h (1 Bft) N-NO 13 0 min 42 W/m 3,9 C 10,7 C 8,0 km/h (2 Bft)
13.05.2020 19:00 10,6 C 64 % 1012,0 hPa 0,0 l/m 3,2 km/h (1 Bft) N-NW 338 0 min 40 W/m 4,1 C 10,6 C 9,7 km/h (2 Bft)
13.05.2020 19:03 10,4 C 64 % 1012,0 hPa 0,0 l/m 4,3 km/h (1 Bft) N-NO 14 0 min 46 W/m 3,9 C 10,4 C 9,7 km/h (2 Bft)
13.05.2020 19:06 10,3 C 64 % 1012,1 hPa 0,0 l/m 3,4 km/h (1 Bft) N 5 0 min 46 W/m 3,8 C 10,3 C 6,4 km/h (2 Bft)
13.05.2020 19:09 10,2 C 65 % 1012,0 hPa 0,0 l/m 3,3 km/h (1 Bft) N 5 0 min 46 W/m 3,9 C 10,2 C 6,4 km/h (2 Bft)
13.05.2020 19:12 10,0 C 65 % 1012,1 hPa 0,0 l/m 3,9 km/h (1 Bft) N 5 0 min 42 W/m 3,7 C 10,0 C 8,0 km/h (2 Bft)
13.05.2020 19:15 9,8 C 66 % 1012,1 hPa 0,0 l/m 3,0 km/h (1 Bft) N 5 0 min 39 W/m 3,8 C 9,8 C 8,0 km/h (2 Bft)
13.05.2020 19:18 9,8 C 66 % 1012,1 hPa 0,0 l/m 1,9 km/h (1 Bft) N 5 0 min 33 W/m 3,8 C 9,8 C 3,2 km/h (1 Bft)
13.05.2020 19:21 9,7 C 67 % 1012,1 hPa 0,0 l/m 3,3 km/h (1 Bft) N 5 0 min 32 W/m 3,9 C 9,7 C 9,7 km/h (2 Bft)
13.05.2020 19:24 9,6 C 67 % 1012,0 hPa 0,0 l/m 3,6 km/h (1 Bft) N 5 0 min 30 W/m 3,8 C 9,6 C 9,7 km/h (2 Bft)
13.05.2020 19:27 9,4 C 67 % 1012,0 hPa 0,0 l/m 2,8 km/h (1 Bft) N 5 0 min 32 W/m 3,6 C 9,4 C 8,0 km/h (2 Bft)
13.05.2020 19:30 9,4 C 68 % 1012,1 hPa 0,0 l/m 2,1 km/h (1 Bft) N 5 0 min 35 W/m 3,8 C 9,4 C 3,2 km/h (1 Bft)
13.05.2020 19:33 9,3 C 69 % 1012,1 hPa 0,0 l/m 2,8 km/h (1 Bft) NW 319 0 min 39 W/m 3,9 C 9,3 C 9,7 km/h (2 Bft)
13.05.2020 19:36 9,2 C 69 % 1012,1 hPa 0,0 l/m 3,0 km/h (1 Bft) NW 319 0 min 33 W/m 3,8 C 9,2 C 6,4 km/h (2 Bft)
13.05.2020 19:39 9,2 C 69 % 1012,1 hPa 0,0 l/m 3,3 km/h (1 Bft) NW 320 0 min 28 W/m 3,8 C 9,2 C 8,0 km/h (2 Bft)
13.05.2020 19:42 9,1 C 69 % 1012,2 hPa 0,0 l/m 2,0 km/h (1 Bft) NW 320 0 min 26 W/m 3,7 C 9,1 C 4,8 km/h (1 Bft)
13.05.2020 19:45 9,1 C 69 % 1012,2 hPa 0,0 l/m 2,9 km/h (1 Bft) NW 323 0 min 26 W/m 3,7 C 9,1 C 8,0 km/h (2 Bft)
13.05.2020 19:48 9,0 C 70 % 1012,2 hPa 0,0 l/m 1,5 km/h (1 Bft) NW 323 0 min 25 W/m 3,8 C 9,0 C 3,2 km/h (1 Bft)
13.05.2020 19:51 8,9 C 70 % 1012,2 hPa 0,0 l/m 2,9 km/h (1 Bft) NW 323 0 min 25 W/m 3,7 C 8,9 C 6,4 km/h (2 Bft)
13.05.2020 19:54 8,8 C 71 % 1012,2 hPa 0,0 l/m 2,1 km/h (1 Bft) NW 323 0 min 25 W/m 3,8 C 8,8 C 4,8 km/h (1 Bft)
13.05.2020 19:57 8,8 C 71 % 1012,3 hPa 0,0 l/m 3,3 km/h (1 Bft) NW 324 0 min 23 W/m 3,8 C 8,8 C 4,8 km/h (1 Bft)
13.05.2020 20:00 8,8 C 71 % 1012,3 hPa 0,0 l/m 2,3 km/h (1 Bft) NW 324 0 min 21 W/m 3,8 C 8,8 C 4,8 km/h (1 Bft)
13.05.2020 20:03 8,7 C 72 % 1012,2 hPa 0,0 l/m 3,4 km/h (1 Bft) NW 325 0 min 18 W/m 3,9 C 8,7 C 6,4 km/h (2 Bft)
13.05.2020 20:06 8,7 C 72 % 1012,3 hPa 0,0 l/m 2,7 km/h (1 Bft) NW 325 0 min 18 W/m 3,9 C 8,7 C 6,4 km/h (2 Bft)
13.05.2020 20:09 8,6 C 72 % 1012,3 hPa 0,0 l/m 3,8 km/h (1 Bft) NW 325 0 min 19 W/m 3,8 C 8,6 C 8,0 km/h (2 Bft)
13.05.2020 20:12 8,6 C 72 % 1012,3 hPa 0,0 l/m 1,7 km/h (1 Bft) NW 325 0 min 23 W/m 3,8 C 8,6 C 6,4 km/h (2 Bft)
13.05.2020 20:15 8,6 C 72 % 1012,4 hPa 0,0 l/m 1,7 km/h (1 Bft) NW 325 0 min 18 W/m 3,8 C 8,6 C 4,8 km/h (1 Bft)
13.05.2020 20:18 8,5 C 73 % 1012,4 hPa 0,0 l/m 3,9 km/h (1 Bft) NW 325 0 min 12 W/m 3,9 C 8,5 C 6,4 km/h (2 Bft)
13.05.2020 20:21 8,5 C 73 % 1012,4 hPa 0,0 l/m 5,3 km/h (1 Bft) N-NO 13 0 min 9 W/m 3,9 C 8,5 C 16,1 km/h (3 Bft)
13.05.2020 20:24 8,5 C 73 % 1012,4 hPa 0,0 l/m 6,9 km/h (2 Bft) N-NW 348 0 min 7 W/m 3,9 C 8,1 C 16,1 km/h (3 Bft)
13.05.2020 20:27 8,5 C 74 % 1012,4 hPa 0,0 l/m 8,3 km/h (2 Bft) N-NW 340 0 min 5 W/m 4,1 C 7,1 C 16,1 km/h (3 Bft)
13.05.2020 20:30 8,6 C 74 % 1012,5 hPa 0,0 l/m 9,7 km/h (2 Bft) NW 323 0 min 0 W/m 4,2 C 6,2 C 19,3 km/h (3 Bft)
13.05.2020 20:33 8,6 C 75 % 1012,6 hPa 0,0 l/m 8,1 km/h (2 Bft) N 350 0 min 5 W/m 4,4 C 7,3 C 20,9 km/h (4 Bft)
13.05.2020 20:36 8,6 C 75 % 1012,6 hPa 0,0 l/m 9,5 km/h (2 Bft) N 360 0 min 7 W/m 4,4 C 6,4 C 22,5 km/h (4 Bft)
13.05.2020 20:39 8,7 C 75 % 1012,6 hPa 0,0 l/m 8,8 km/h (2 Bft) N 355 0 min 9 W/m 4,5 C 6,9 C 17,7 km/h (3 Bft)
13.05.2020 20:42 8,7 C 75 % 1012,6 hPa 0,0 l/m 10,0 km/h (2 Bft) N-NW 341 0 min 7 W/m 4,5 C 6,2 C 19,3 km/h (3 Bft)
13.05.2020 20:45 8,6 C 75 % 1012,7 hPa 0,0 l/m 9,8 km/h (2 Bft) N-NO 32 0 min 5 W/m 4,4 C 6,2 C 22,5 km/h (4 Bft)
13.05.2020 20:48 8,7 C 75 % 1012,6 hPa 0,0 l/m 13,1 km/h (3 Bft) N 355 0 min 5 W/m 4,5 C 4,5 C 22,5 km/h (4 Bft)
13.05.2020 20:51 8,7 C 75 % 1012,6 hPa 0,0 l/m 10,9 km/h (2 Bft) N-NW 346 0 min 5 W/m 4,5 C 5,6 C 25,7 km/h (4 Bft)
13.05.2020 20:54 8,7 C 75 % 1012,7 hPa 0,0 l/m 11,6 km/h (2 Bft) N-NW 340 0 min 5 W/m 4,5 C 5,2 C 24,1 km/h (4 Bft)
13.05.2020 20:57 8,6 C 75 % 1012,7 hPa 0,0 l/m 9,8 km/h (2 Bft) NW 316 0 min 0 W/m 4,4 C 6,2 C 17,7 km/h (3 Bft)
13.05.2020 21:00 8,6 C 74 % 1012,7 hPa 0,0 l/m 13,5 km/h (3 Bft) N-NW 346 0 min 0 W/m 4,2 C 4,1 C 32,2 km/h (5 Bft)
13.05.2020 21:03 8,5 C 74 % 1012,7 hPa 0,0 l/m 17,6 km/h (3 Bft) N 360 0 min 0 W/m 4,1 C 2,2 C 32,2 km/h (5 Bft)
13.05.2020 21:06 8,4 C 74 % 1012,8 hPa 0,0 l/m 13,9 km/h (3 Bft) N 351 0 min 0 W/m 4,0 C 3,7 C 30,6 km/h (5 Bft)
13.05.2020 21:09 8,3 C 73 % 1012,8 hPa 0,0 l/m 17,6 km/h (3 Bft) NW 325 0 min 0 W/m 3,8 C 2,0 C 24,1 km/h (4 Bft)
13.05.2020 21:12 8,3 C 73 % 1012,8 hPa 0,0 l/m 14,8 km/h (3 Bft) NW 321 0 min 0 W/m 3,8 C 3,2 C 29,0 km/h (5 Bft)
13.05.2020 21:15 8,2 C 73 % 1012,8 hPa 0,0 l/m 7,6 km/h (2 Bft) N 11 0 min 0 W/m 3,7 C 7,3 C 14,5 km/h (3 Bft)
13.05.2020 21:18 8,2 C 72 % 1012,8 hPa 0,0 l/m 4,8 km/h (1 Bft) N-NO 31 0 min 0 W/m 3,5 C 8,2 C 12,9 km/h (3 Bft)
13.05.2020 21:21 8,2 C 72 % 1012,9 hPa 0,0 l/m 4,2 km/h (1 Bft) NW 324 0 min 0 W/m 3,5 C 8,2 C 8,0 km/h (2 Bft)
13.05.2020 21:24 8,2 C 72 % 1012,9 hPa 0,0 l/m 4,4 km/h (1 Bft) N-NW 329 0 min 0 W/m 3,5 C 8,2 C 9,7 km/h (2 Bft)
13.05.2020 21:27 8,2 C 72 % 1013,1 hPa 0,0 l/m 11,5 km/h (2 Bft) N 360 0 min 0 W/m 3,5 C 4,7 C 32,2 km/h (5 Bft)
13.05.2020 21:30 8,2 C 72 % 1013,3 hPa 0,0 l/m 14,3 km/h (3 Bft) N 355 0 min 0 W/m 3,5 C 3,3 C 24,1 km/h (4 Bft)
13.05.2020 21:33 8,1 C 72 % 1013,3 hPa 0,0 l/m 13,2 km/h (3 Bft) N 355 0 min 0 W/m 3,4 C 3,7 C 20,9 km/h (4 Bft)
13.05.2020 21:36 8,1 C 72 % 1013,3 hPa 0,0 l/m 10,9 km/h (2 Bft) N-NW 329 0 min 0 W/m 3,4 C 4,9 C 20,9 km/h (4 Bft)
13.05.2020 21:39 8,1 C 72 % 1013,3 hPa 0,0 l/m 11,5 km/h (2 Bft) N-NW 339 0 min 0 W/m 3,4 C 4,6 C 19,3 km/h (3 Bft)
13.05.2020 21:42 8,0 C 72 % 1013,3 hPa 0,0 l/m 10,0 km/h (2 Bft) NW 326 0 min 0 W/m 3,3 C 5,4 C 16,1 km/h (3 Bft)
13.05.2020 21:45 8,0 C 72 % 1013,3 hPa 0,0 l/m 11,5 km/h (2 Bft) N-NW 331 0 min 0 W/m 3,3 C 4,5 C 19,3 km/h (3 Bft)
13.05.2020 21:48 8,0 C 73 % 1013,3 hPa 0,0 l/m 8,6 km/h (2 Bft) W-NW 301 0 min 0 W/m 3,5 C 6,3 C 16,1 km/h (3 Bft)
13.05.2020 21:51 8,0 C 73 % 1013,3 hPa 0,0 l/m 13,1 km/h (3 Bft) N-NW 339 0 min 0 W/m 3,5 C 3,6 C 20,9 km/h (4 Bft)
13.05.2020 21:54 8,1 C 73 % 1013,3 hPa 0,0 l/m 9,5 km/h (2 Bft) N-NW 336 0 min 0 W/m 3,6 C 5,8 C 25,7 km/h (4 Bft)
13.05.2020 21:57 8,1 C 73 % 1013,2 hPa 0,0 l/m 10,6 km/h (2 Bft) N 355 0 min 0 W/m 3,6 C 5,1 C 20,9 km/h (4 Bft)
13.05.2020 22:00 8,1 C 73 % 1013,2 hPa 0,0 l/m 10,1 km/h (2 Bft) N-NO 12 0 min 0 W/m 3,6 C 5,4 C 20,9 km/h (4 Bft)
13.05.2020 22:03 8,1 C 72 % 1013,2 hPa 0,0 l/m 11,2 km/h (2 Bft) N-NW 335 0 min 0 W/m 3,4 C 4,8 C 24,1 km/h (4 Bft)
13.05.2020 22:06 8,1 C 72 % 1013,2 hPa 0,0 l/m 13,3 km/h (3 Bft) N-NW 344 0 min 0 W/m 3,4 C 3,6 C 29,0 km/h (5 Bft)
13.05.2020 22:09 8,1 C 72 % 1013,2 hPa 0,0 l/m 12,1 km/h (2 Bft) N-NW 328 0 min 0 W/m 3,4 C 4,3 C 22,5 km/h (4 Bft)
13.05.2020 22:12 8,2 C 72 % 1013,3 hPa 0,0 l/m 11,1 km/h (2 Bft) NW 319 0 min 0 W/m 3,5 C 4,9 C 20,9 km/h (4 Bft)
13.05.2020 22:15 8,2 C 72 % 1013,3 hPa 0,0 l/m 15,2 km/h (3 Bft) N-NW 341 0 min 0 W/m 3,5 C 2,9 C 25,7 km/h (4 Bft)
13.05.2020 22:18 8,3 C 72 % 1013,4 hPa 0,0 l/m 14,1 km/h (3 Bft) N-NW 329 0 min 0 W/m 3,6 C 3,5 C 24,1 km/h (4 Bft)
13.05.2020 22:21 8,3 C 72 % 1013,5 hPa 0,0 l/m 7,1 km/h (2 Bft) N-NW 329 0 min 0 W/m 3,6 C 7,8 C 16,1 km/h (3 Bft)
13.05.2020 22:24 8,3 C 72 % 1013,5 hPa 0,0 l/m 13,0 km/h (3 Bft) N-NW 335 0 min 0 W/m 3,6 C 4,0 C 24,1 km/h (4 Bft)
13.05.2020 22:27 8,3 C 72 % 1013,6 hPa 0,0 l/m 10,7 km/h (2 Bft) N-NO 27 0 min 0 W/m 3,6 C 5,3 C 22,5 km/h (4 Bft)
13.05.2020 22:30 8,3 C 71 % 1013,6 hPa 0,0 l/m 9,6 km/h (2 Bft) N-NW 348 0 min 0 W/m 3,4 C 6,0 C 17,7 km/h (3 Bft)
13.05.2020 22:33 8,3 C 71 % 1013,6 hPa 0,0 l/m 8,3 km/h (2 Bft) N-NW 339 0 min 0 W/m 3,4 C 6,9 C 20,9 km/h (4 Bft)
13.05.2020 22:36 8,3 C 70 % 1013,6 hPa 0,0 l/m 10,2 km/h (2 Bft) N 351 0 min 0 W/m 3,2 C 5,6 C 19,3 km/h (3 Bft)
13.05.2020 22:39 8,2 C 70 % 1013,6 hPa 0,0 l/m 11,3 km/h (2 Bft) NW 317 0 min 0 W/m 3,1 C 4,8 C 24,1 km/h (4 Bft)
13.05.2020 22:42 8,2 C 70 % 1013,6 hPa 0,0 l/m 9,5 km/h (2 Bft) N-NW 345 0 min 0 W/m 3,1 C 5,9 C 20,9 km/h (4 Bft)
13.05.2020 22:45 8,2 C 71 % 1013,7 hPa 0,0 l/m 8,3 km/h (2 Bft) N 355 0 min 0 W/m 3,3 C 6,7 C 22,5 km/h (4 Bft)
13.05.2020 22:48 8,2 C 71 % 1013,7 hPa 0,0 l/m 9,9 km/h (2 Bft) N-NO 17 0 min 0 W/m 3,3 C 5,7 C 19,3 km/h (3 Bft)
13.05.2020 22:51 8,2 C 70 % 1013,7 hPa 0,0 l/m 9,4 km/h (2 Bft) N-NW 332 0 min 0 W/m 3,1 C 6,0 C 17,7 km/h (3 Bft)
13.05.2020 22:54 8,2 C 70 % 1013,8 hPa 0,0 l/m 11,5 km/h (2 Bft) N 5 0 min 0 W/m 3,1 C 4,7 C 20,9 km/h (4 Bft)
13.05.2020 22:57 8,2 C 70 % 1013,8 hPa 0,0 l/m 7,9 km/h (2 Bft) N-NW 342 0 min 0 W/m 3,1 C 7,0 C 19,3 km/h (3 Bft)
13.05.2020 23:00 8,2 C 70 % 1013,8 hPa 0,0 l/m 10,7 km/h (2 Bft) N-NO 14 0 min 0 W/m 3,1 C 5,2 C 24,1 km/h (4 Bft)
13.05.2020 23:03 8,2 C 70 % 1013,8 hPa 0,0 l/m 7,9 km/h (2 Bft) N-NW 339 0 min 0 W/m 3,1 C 7,0 C 19,3 km/h (3 Bft)
13.05.2020 23:06 8,2 C 71 % 1013,9 hPa 0,0 l/m 8,8 km/h (2 Bft) N 355 0 min 0 W/m 3,3 C 6,4 C 16,1 km/h (3 Bft)
13.05.2020 23:09 8,2 C 71 % 1013,9 hPa 0,0 l/m 9,5 km/h (2 Bft) N-NW 348 0 min 0 W/m 3,3 C 5,9 C 22,5 km/h (4 Bft)
13.05.2020 23:12 8,3 C 71 % 1014,0 hPa 0,0 l/m 10,7 km/h (2 Bft) N-NO 17 0 min 0 W/m 3,4 C 5,3 C 22,5 km/h (4 Bft)
13.05.2020 23:15 8,2 C 71 % 1013,9 hPa 0,0 l/m 9,6 km/h (2 Bft) N-NW 334 0 min 0 W/m 3,3 C 5,9 C 19,3 km/h (3 Bft)
13.05.2020 23:18 8,2 C 71 % 1014,0 hPa 0,0 l/m 10,7 km/h (2 Bft) N 355 0 min 0 W/m 3,3 C 5,2 C 20,9 km/h (4 Bft)
13.05.2020 23:21 8,2 C 71 % 1014,0 hPa 0,0 l/m 10,3 km/h (2 Bft) N 351 0 min 0 W/m 3,3 C 5,4 C 19,3 km/h (3 Bft)
13.05.2020 23:24 8,2 C 71 % 1014,1 hPa 0,0 l/m 9,0 km/h (2 Bft) N-NW 342 0 min 0 W/m 3,3 C 6,3 C 19,3 km/h (3 Bft)
13.05.2020 23:27 8,2 C 71 % 1014,1 hPa 0,0 l/m 10,1 km/h (2 Bft) N 355 0 min 0 W/m 3,3 C 5,5 C 16,1 km/h (3 Bft)
13.05.2020 23:30 8,3 C 71 % 1014,1 hPa 0,0 l/m 7,4 km/h (2 Bft) N-NO 16 0 min 0 W/m 3,4 C 7,5 C 17,7 km/h (3 Bft)
13.05.2020 23:33 8,3 C 71 % 1014,1 hPa 0,0 l/m 9,6 km/h (2 Bft) N-NO 17 0 min 0 W/m 3,4 C 6,0 C 19,3 km/h (3 Bft)
13.05.2020 23:36 8,3 C 71 % 1014,2 hPa 0,0 l/m 11,0 km/h (2 Bft) N-NW 347 0 min 0 W/m 3,4 C 5,1 C 19,3 km/h (3 Bft)
13.05.2020 23:39 8,3 C 72 % 1014,1 hPa 0,0 l/m 9,2 km/h (2 Bft) N-NO 15 0 min 0 W/m 3,6 C 6,2 C 17,7 km/h (3 Bft)
13.05.2020 23:42 8,3 C 72 % 1014,1 hPa 0,0 l/m 10,9 km/h (2 Bft) N 351 0 min 0 W/m 3,6 C 5,2 C 24,1 km/h (4 Bft)
13.05.2020 23:45 8,3 C 72 % 1014,1 hPa 0,0 l/m 8,6 km/h (2 Bft) N-NO 12 0 min 0 W/m 3,6 C 6,6 C 22,5 km/h (4 Bft)
13.05.2020 23:48 8,3 C 72 % 1014,1 hPa 0,0 l/m 10,0 km/h (2 Bft) N 5 0 min 0 W/m 3,6 C 5,7 C 17,7 km/h (3 Bft)
13.05.2020 23:51 8,2 C 72 % 1014,2 hPa 0,0 l/m 11,0 km/h (2 Bft) N-NO 21 0 min 0 W/m 3,5 C 5,0 C 19,3 km/h (3 Bft)
13.05.2020 23:54 8,2 C 72 % 1014,3 hPa 0,0 l/m 7,5 km/h (2 Bft) N-NW 346 0 min 0 W/m 3,5 C 7,3 C 14,5 km/h (3 Bft)
13.05.2020 23:57 8,2 C 72 % 1014,3 hPa 0,0 l/m 9,0 km/h (2 Bft) N-NO 24 0 min 0 W/m 3,5 C 6,3 C 16,1 km/h (3 Bft)
_ Min-Zeit 01:30 18:30 06:51 - 10:42 - - - - 22:39 08:48 10:39
Minimum _ 6,4 C 59 % 1009,7 hPa - 1,0 km/h (0 Bft) - - - - 3,1 C 1,2 C 3,2 km/h (1 Bft)
_ Max-Zeit 15:21 10:45 23:54 08:24 21:03 - - 10:45 13:09 12:00 15:12 21:00
Maximum _ 13,3 C 93 % 1014,3 hPa 0,8 l/m 17,6 km/h
N (3 Bft)
- - 3 min 1081 W/m 8,3 C 12,6 C 32,2 km/h
NW (5 Bft)
Durchschnitt _ 8,8 C 79 % 1011,2 hPa #4,8 l/m 7,9 km/h (2 Bft) N-NW - #4:00 h 280 W/m 5,3 C 7,4 C 15,9 km/h (3 Bft)
2020 Cux-Wetter.de -Die Nutzung der Wetterdaten nur mit ausdrcklicher Genehmigung